<?xml version="1.0" encoding="UTF-8" standalone="no" ?>
<gpx xmlns="http://www.topografix.com/GPX/1/1" xmlns:xsi="http://www.w3.org/2001/XMLSchema-instance" xsi:schemaLocation="http://www.topografix.com/GPX/1/1 http://www.topografix.com/GPX/1/1/gpx.xsd" version="1.1" creator="VisuGPX - https://www.visugpx.com">
  <metadata>
    <name>La Montade</name>
    <desc><![CDATA[Par le vallon des Ouides]]></desc>
  </metadata>
  <wpt lat="43.36198" lon="5.46366">
    <ele>185.3</ele>
    <name><![CDATA[GMap 43.362088° N, 5.463716° E]]></name>
  </wpt>
  <wpt lat="43.36191" lon="5.46376">
    <ele>184.8</ele>
    <name><![CDATA[GMap 43.362088° N, 5.463716° E]]></name>
  </wpt>
  <trk>
    <name><![CDATA[La Montade_1]]></name>
    <trkseg>
      <trkpt lat="43.36198" lon="5.46366">
        <ele>101</ele>
        <time>2015-08-05T04:26:49Z</time>
      </trkpt>
      <trkpt lat="43.36236" lon="5.46383">
        <ele>195</ele>
        <time>2015-08-05T04:27:31Z</time>
      </trkpt>
      <trkpt lat="43.36243" lon="5.46377">
        <ele>188</ele>
        <time>2015-08-05T04:28:20Z</time>
      </trkpt>
      <trkpt lat="43.36252" lon="5.46381">
        <ele>188</ele>
        <time>2015-08-05T04:28:39Z</time>
      </trkpt>
      <trkpt lat="43.36259" lon="5.46372">
        <ele>188</ele>
        <time>2015-08-05T04:29:37Z</time>
      </trkpt>
      <trkpt lat="43.36265" lon="5.46362">
        <ele>188</ele>
        <time>2015-08-05T04:29:48Z</time>
      </trkpt>
      <trkpt lat="43.3627" lon="5.46352">
        <ele>195</ele>
        <time>2015-08-05T04:29:59Z</time>
      </trkpt>
      <trkpt lat="43.36277" lon="5.46345">
        <ele>195</ele>
        <time>2015-08-05T04:30:18Z</time>
      </trkpt>
      <trkpt lat="43.36283" lon="5.46335">
        <ele>195</ele>
        <time>2015-08-05T04:30:27Z</time>
      </trkpt>
      <trkpt lat="43.36291" lon="5.46328">
        <ele>195</ele>
        <time>2015-08-05T04:30:35Z</time>
      </trkpt>
      <trkpt lat="43.36298" lon="5.46318">
        <ele>195</ele>
        <time>2015-08-05T04:30:43Z</time>
      </trkpt>
      <trkpt lat="43.36305" lon="5.4631">
        <ele>195</ele>
        <time>2015-08-05T04:30:51Z</time>
      </trkpt>
      <trkpt lat="43.36312" lon="5.46302">
        <ele>200</ele>
        <time>2015-08-05T04:30:58Z</time>
      </trkpt>
      <trkpt lat="43.36317" lon="5.46293">
        <ele>200</ele>
        <time>2015-08-05T04:31:05Z</time>
      </trkpt>
      <trkpt lat="43.3632" lon="5.46279">
        <ele>205</ele>
        <time>2015-08-05T04:31:16Z</time>
      </trkpt>
      <trkpt lat="43.36325" lon="5.46269">
        <ele>211</ele>
        <time>2015-08-05T04:31:27Z</time>
      </trkpt>
      <trkpt lat="43.36334" lon="5.46264">
        <ele>211</ele>
        <time>2015-08-05T04:31:32Z</time>
      </trkpt>
      <trkpt lat="43.36343" lon="5.46258">
        <ele>223</ele>
        <time>2015-08-05T04:31:42Z</time>
      </trkpt>
      <trkpt lat="43.36354" lon="5.46257">
        <ele>223</ele>
        <time>2015-08-05T04:31:48Z</time>
      </trkpt>
      <trkpt lat="43.36365" lon="5.46257">
        <ele>218</ele>
        <time>2015-08-05T04:31:56Z</time>
      </trkpt>
      <trkpt lat="43.36374" lon="5.46252">
        <ele>210</ele>
        <time>2015-08-05T04:32:02Z</time>
      </trkpt>
      <trkpt lat="43.36382" lon="5.46247">
        <ele>202</ele>
        <time>2015-08-05T04:32:10Z</time>
      </trkpt>
      <trkpt lat="43.36391" lon="5.46241">
        <ele>202</ele>
        <time>2015-08-05T04:32:17Z</time>
      </trkpt>
      <trkpt lat="43.364" lon="5.46235">
        <ele>208</ele>
        <time>2015-08-05T04:32:28Z</time>
      </trkpt>
      <trkpt lat="43.36409" lon="5.46234">
        <ele>220</ele>
        <time>2015-08-05T04:32:45Z</time>
      </trkpt>
      <trkpt lat="43.36418" lon="5.4624">
        <ele>220</ele>
        <time>2015-08-05T04:32:53Z</time>
      </trkpt>
      <trkpt lat="43.36427" lon="5.46247">
        <ele>226</ele>
        <time>2015-08-05T04:33:03Z</time>
      </trkpt>
      <trkpt lat="43.36436" lon="5.46251">
        <ele>226</ele>
        <time>2015-08-05T04:33:09Z</time>
      </trkpt>
      <trkpt lat="43.36445" lon="5.46257">
        <ele>219</ele>
        <time>2015-08-05T04:33:15Z</time>
      </trkpt>
      <trkpt lat="43.36454" lon="5.46261">
        <ele>219</ele>
        <time>2015-08-05T04:33:23Z</time>
      </trkpt>
      <trkpt lat="43.36463" lon="5.46263">
        <ele>210</ele>
        <time>2015-08-05T04:33:29Z</time>
      </trkpt>
      <trkpt lat="43.36473" lon="5.4626">
        <ele>204</ele>
        <time>2015-08-05T04:33:36Z</time>
      </trkpt>
      <trkpt lat="43.36483" lon="5.46258">
        <ele>204</ele>
        <time>2015-08-05T04:33:48Z</time>
      </trkpt>
      <trkpt lat="43.36488" lon="5.46249">
        <ele>209</ele>
        <time>2015-08-05T04:33:57Z</time>
      </trkpt>
      <trkpt lat="43.36494" lon="5.46236">
        <ele>209</ele>
        <time>2015-08-05T04:34:08Z</time>
      </trkpt>
      <trkpt lat="43.36498" lon="5.46247">
        <ele>209</ele>
        <time>2015-08-05T04:34:32Z</time>
      </trkpt>
      <trkpt lat="43.36492" lon="5.46258">
        <ele>223</ele>
        <time>2015-08-05T04:34:48Z</time>
      </trkpt>
      <trkpt lat="43.36485" lon="5.46265">
        <ele>236</ele>
        <time>2015-08-05T04:34:59Z</time>
      </trkpt>
      <trkpt lat="43.36479" lon="5.46255">
        <ele>227</ele>
        <time>2015-08-05T04:35:13Z</time>
      </trkpt>
      <trkpt lat="43.36477" lon="5.46243">
        <ele>227</ele>
        <time>2015-08-05T04:35:28Z</time>
      </trkpt>
      <trkpt lat="43.36479" lon="5.4623">
        <ele>227</ele>
        <time>2015-08-05T04:35:42Z</time>
      </trkpt>
      <trkpt lat="43.36482" lon="5.46217">
        <ele>215</ele>
        <time>2015-08-05T04:35:57Z</time>
      </trkpt>
      <trkpt lat="43.36473" lon="5.46222">
        <ele>226</ele>
        <time>2015-08-05T04:36:14Z</time>
      </trkpt>
      <trkpt lat="43.36467" lon="5.46213">
        <ele>234</ele>
        <time>2015-08-05T04:36:34Z</time>
      </trkpt>
      <trkpt lat="43.36464" lon="5.46201">
        <ele>234</ele>
        <time>2015-08-05T04:36:53Z</time>
      </trkpt>
      <trkpt lat="43.36455" lon="5.46197">
        <ele>234</ele>
        <time>2015-08-05T04:37:07Z</time>
      </trkpt>
      <trkpt lat="43.36448" lon="5.46188">
        <ele>234</ele>
        <time>2015-08-05T04:37:21Z</time>
      </trkpt>
      <trkpt lat="43.36445" lon="5.46177">
        <ele>234</ele>
        <time>2015-08-05T04:37:36Z</time>
      </trkpt>
      <trkpt lat="43.36446" lon="5.46164">
        <ele>234</ele>
        <time>2015-08-05T04:37:49Z</time>
      </trkpt>
      <trkpt lat="43.36447" lon="5.46151">
        <ele>221</ele>
        <time>2015-08-05T04:38:09Z</time>
      </trkpt>
      <trkpt lat="43.36439" lon="5.46154">
        <ele>239</ele>
        <time>2015-08-05T04:39:22Z</time>
      </trkpt>
      <trkpt lat="43.36448" lon="5.46151">
        <ele>232</ele>
        <time>2015-08-05T04:39:43Z</time>
      </trkpt>
      <trkpt lat="43.36456" lon="5.46145">
        <ele>232</ele>
        <time>2015-08-05T04:40:20Z</time>
      </trkpt>
      <trkpt lat="43.36456" lon="5.46133">
        <ele>232</ele>
        <time>2015-08-05T04:41:15Z</time>
      </trkpt>
      <trkpt lat="43.36462" lon="5.46121">
        <ele>223</ele>
        <time>2015-08-05T04:41:28Z</time>
      </trkpt>
      <trkpt lat="43.36469" lon="5.46113">
        <ele>223</ele>
        <time>2015-08-05T04:41:46Z</time>
      </trkpt>
      <trkpt lat="43.36471" lon="5.46101">
        <ele>223</ele>
        <time>2015-08-05T04:42:23Z</time>
      </trkpt>
      <trkpt lat="43.36473" lon="5.46089">
        <ele>223</ele>
        <time>2015-08-05T04:42:50Z</time>
      </trkpt>
      <trkpt lat="43.36467" lon="5.46079">
        <ele>213</ele>
        <time>2015-08-05T04:43:37Z</time>
      </trkpt>
      <trkpt lat="43.3646" lon="5.4607">
        <ele>207</ele>
        <time>2015-08-05T04:44:00Z</time>
      </trkpt>
      <trkpt lat="43.36465" lon="5.46059">
        <ele>218</ele>
        <time>2015-08-05T04:44:35Z</time>
      </trkpt>
      <trkpt lat="43.36473" lon="5.46055">
        <ele>218</ele>
        <time>2015-08-05T04:45:28Z</time>
      </trkpt>
      <trkpt lat="43.36469" lon="5.46066">
        <ele>233</ele>
        <time>2015-08-05T04:46:07Z</time>
      </trkpt>
      <trkpt lat="43.36475" lon="5.46056">
        <ele>238</ele>
        <time>2015-08-05T04:47:10Z</time>
      </trkpt>
      <trkpt lat="43.36475" lon="5.46044">
        <ele>238</ele>
        <time>2015-08-05T04:47:36Z</time>
      </trkpt>
      <trkpt lat="43.36481" lon="5.46033">
        <ele>233</ele>
        <time>2015-08-05T04:47:59Z</time>
      </trkpt>
      <trkpt lat="43.36487" lon="5.46023">
        <ele>233</ele>
        <time>2015-08-05T04:48:10Z</time>
      </trkpt>
      <trkpt lat="43.36483" lon="5.4601">
        <ele>233</ele>
        <time>2015-08-05T04:48:39Z</time>
      </trkpt>
      <trkpt lat="43.36487" lon="5.46">
        <ele>241</ele>
        <time>2015-08-05T04:49:24Z</time>
      </trkpt>
      <trkpt lat="43.36482" lon="5.4599">
        <ele>241</ele>
        <time>2015-08-05T04:50:07Z</time>
      </trkpt>
      <trkpt lat="43.36478" lon="5.45977">
        <ele>231</ele>
        <time>2015-08-05T04:50:23Z</time>
      </trkpt>
      <trkpt lat="43.36488" lon="5.45976">
        <ele>231</ele>
        <time>2015-08-05T04:50:42Z</time>
      </trkpt>
      <trkpt lat="43.36479" lon="5.45972">
        <ele>219</ele>
        <time>2015-08-05T04:50:55Z</time>
      </trkpt>
      <trkpt lat="43.36469" lon="5.45964">
        <ele>219</ele>
        <time>2015-08-05T04:51:31Z</time>
      </trkpt>
      <trkpt lat="43.36478" lon="5.4597">
        <ele>219</ele>
        <time>2015-08-05T04:51:49Z</time>
      </trkpt>
      <trkpt lat="43.36464" lon="5.45961">
        <ele>219</ele>
        <time>2015-08-05T04:51:53Z</time>
      </trkpt>
      <trkpt lat="43.36437" lon="5.45944">
        <ele>225</ele>
        <time>2015-08-05T04:51:59Z</time>
      </trkpt>
      <trkpt lat="43.36448" lon="5.45951">
        <ele>225</ele>
        <time>2015-08-05T04:52:10Z</time>
      </trkpt>
      <trkpt lat="43.36456" lon="5.45957">
        <ele>225</ele>
        <time>2015-08-05T04:52:14Z</time>
      </trkpt>
      <trkpt lat="43.36447" lon="5.45949">
        <ele>225</ele>
        <time>2015-08-05T04:52:21Z</time>
      </trkpt>
      <trkpt lat="43.36433" lon="5.45942">
        <ele>233</ele>
        <time>2015-08-05T04:52:25Z</time>
      </trkpt>
      <trkpt lat="43.36452" lon="5.45955">
        <ele>233</ele>
        <time>2015-08-05T04:52:36Z</time>
      </trkpt>
      <trkpt lat="43.36461" lon="5.45961">
        <ele>233</ele>
        <time>2015-08-05T04:52:39Z</time>
      </trkpt>
      <trkpt lat="43.3647" lon="5.45966">
        <ele>233</ele>
        <time>2015-08-05T04:52:44Z</time>
      </trkpt>
      <trkpt lat="43.36479" lon="5.45972">
        <ele>226</ele>
        <time>2015-08-05T04:52:49Z</time>
      </trkpt>
      <trkpt lat="43.36488" lon="5.45975">
        <ele>219</ele>
        <time>2015-08-05T04:53:19Z</time>
      </trkpt>
      <trkpt lat="43.36477" lon="5.45966">
        <ele>219</ele>
        <time>2015-08-05T04:53:24Z</time>
      </trkpt>
      <trkpt lat="43.36468" lon="5.45959">
        <ele>219</ele>
        <time>2015-08-05T04:53:29Z</time>
      </trkpt>
      <trkpt lat="43.36475" lon="5.45966">
        <ele>219</ele>
        <time>2015-08-05T04:53:35Z</time>
      </trkpt>
      <trkpt lat="43.36487" lon="5.45974">
        <ele>219</ele>
        <time>2015-08-05T04:53:47Z</time>
      </trkpt>
      <trkpt lat="43.36496" lon="5.4598">
        <ele>219</ele>
        <time>2015-08-05T04:54:02Z</time>
      </trkpt>
      <trkpt lat="43.36486" lon="5.45973">
        <ele>219</ele>
        <time>2015-08-05T04:54:10Z</time>
      </trkpt>
      <trkpt lat="43.36495" lon="5.45979">
        <ele>214</ele>
        <time>2015-08-05T04:54:20Z</time>
      </trkpt>
      <trkpt lat="43.36481" lon="5.45969">
        <ele>214</ele>
        <time>2015-08-05T04:54:27Z</time>
      </trkpt>
      <trkpt lat="43.3649" lon="5.45973">
        <ele>214</ele>
        <time>2015-08-05T04:54:29Z</time>
      </trkpt>
      <trkpt lat="43.36482" lon="5.45966">
        <ele>214</ele>
        <time>2015-08-05T04:54:36Z</time>
      </trkpt>
      <trkpt lat="43.36491" lon="5.45967">
        <ele>227</ele>
        <time>2015-08-05T04:55:07Z</time>
      </trkpt>
      <trkpt lat="43.36496" lon="5.45957">
        <ele>227</ele>
        <time>2015-08-05T04:55:35Z</time>
      </trkpt>
      <trkpt lat="43.36502" lon="5.45948">
        <ele>227</ele>
        <time>2015-08-05T04:56:02Z</time>
      </trkpt>
      <trkpt lat="43.36505" lon="5.45936">
        <ele>219</ele>
        <time>2015-08-05T04:56:15Z</time>
      </trkpt>
      <trkpt lat="43.36509" lon="5.45924">
        <ele>219</ele>
        <time>2015-08-05T04:56:30Z</time>
      </trkpt>
      <trkpt lat="43.36511" lon="5.45912">
        <ele>225</ele>
        <time>2015-08-05T04:56:49Z</time>
      </trkpt>
      <trkpt lat="43.36521" lon="5.45909">
        <ele>225</ele>
        <time>2015-08-05T04:56:59Z</time>
      </trkpt>
      <trkpt lat="43.3653" lon="5.45905">
        <ele>225</ele>
        <time>2015-08-05T04:57:14Z</time>
      </trkpt>
      <trkpt lat="43.36537" lon="5.45898">
        <ele>225</ele>
        <time>2015-08-05T04:57:26Z</time>
      </trkpt>
      <trkpt lat="43.36534" lon="5.45886">
        <ele>225</ele>
        <time>2015-08-05T04:58:14Z</time>
      </trkpt>
      <trkpt lat="43.36529" lon="5.45872">
        <ele>225</ele>
        <time>2015-08-05T04:58:37Z</time>
      </trkpt>
      <trkpt lat="43.36521" lon="5.45864">
        <ele>225</ele>
        <time>2015-08-05T04:58:42Z</time>
      </trkpt>
      <trkpt lat="43.3653" lon="5.45865">
        <ele>225</ele>
        <time>2015-08-05T04:59:26Z</time>
      </trkpt>
      <trkpt lat="43.36541" lon="5.45865">
        <ele>225</ele>
        <time>2015-08-05T04:59:38Z</time>
      </trkpt>
      <trkpt lat="43.3655" lon="5.45869">
        <ele>225</ele>
        <time>2015-08-05T04:59:49Z</time>
      </trkpt>
      <trkpt lat="43.36546" lon="5.45858">
        <ele>225</ele>
        <time>2015-08-05T05:00:11Z</time>
      </trkpt>
      <trkpt lat="43.36554" lon="5.45854">
        <ele>225</ele>
        <time>2015-08-05T05:00:29Z</time>
      </trkpt>
      <trkpt lat="43.36563" lon="5.45849">
        <ele>225</ele>
        <time>2015-08-05T05:00:44Z</time>
      </trkpt>
      <trkpt lat="43.36566" lon="5.45837">
        <ele>234</ele>
        <time>2015-08-05T05:01:11Z</time>
      </trkpt>
      <trkpt lat="43.36561" lon="5.45826">
        <ele>234</ele>
        <time>2015-08-05T05:01:23Z</time>
      </trkpt>
      <trkpt lat="43.36559" lon="5.45814">
        <ele>246</ele>
        <time>2015-08-05T05:01:40Z</time>
      </trkpt>
      <trkpt lat="43.36565" lon="5.45804">
        <ele>246</ele>
        <time>2015-08-05T05:01:49Z</time>
      </trkpt>
      <trkpt lat="43.3657" lon="5.45793">
        <ele>246</ele>
        <time>2015-08-05T05:01:59Z</time>
      </trkpt>
      <trkpt lat="43.36569" lon="5.4578">
        <ele>229</ele>
        <time>2015-08-05T05:02:15Z</time>
      </trkpt>
      <trkpt lat="43.36569" lon="5.45767">
        <ele>235</ele>
        <time>2015-08-05T05:02:31Z</time>
      </trkpt>
      <trkpt lat="43.36574" lon="5.45757">
        <ele>235</ele>
        <time>2015-08-05T05:02:41Z</time>
      </trkpt>
      <trkpt lat="43.36584" lon="5.45754">
        <ele>235</ele>
        <time>2015-08-05T05:02:53Z</time>
      </trkpt>
      <trkpt lat="43.36592" lon="5.4575">
        <ele>241</ele>
        <time>2015-08-05T05:03:13Z</time>
      </trkpt>
      <trkpt lat="43.36599" lon="5.45742">
        <ele>241</ele>
        <time>2015-08-05T05:03:24Z</time>
      </trkpt>
      <trkpt lat="43.36604" lon="5.4573">
        <ele>241</ele>
        <time>2015-08-05T05:03:39Z</time>
      </trkpt>
      <trkpt lat="43.36609" lon="5.4572">
        <ele>241</ele>
        <time>2015-08-05T05:03:49Z</time>
      </trkpt>
      <trkpt lat="43.36618" lon="5.45717">
        <ele>241</ele>
        <time>2015-08-05T05:04:00Z</time>
      </trkpt>
      <trkpt lat="43.36627" lon="5.45715">
        <ele>241</ele>
        <time>2015-08-05T05:04:13Z</time>
      </trkpt>
      <trkpt lat="43.36636" lon="5.45715">
        <ele>235</ele>
        <time>2015-08-05T05:04:29Z</time>
      </trkpt>
      <trkpt lat="43.36646" lon="5.4571">
        <ele>235</ele>
        <time>2015-08-05T05:04:43Z</time>
      </trkpt>
      <trkpt lat="43.3665" lon="5.457">
        <ele>235</ele>
        <time>2015-08-05T05:04:54Z</time>
      </trkpt>
      <trkpt lat="43.36652" lon="5.45687">
        <ele>241</ele>
        <time>2015-08-05T05:05:13Z</time>
      </trkpt>
      <trkpt lat="43.36659" lon="5.45677">
        <ele>241</ele>
        <time>2015-08-05T05:05:46Z</time>
      </trkpt>
      <trkpt lat="43.3666" lon="5.45665">
        <ele>241</ele>
        <time>2015-08-05T05:06:05Z</time>
      </trkpt>
      <trkpt lat="43.36669" lon="5.45661">
        <ele>241</ele>
        <time>2015-08-05T05:06:16Z</time>
      </trkpt>
      <trkpt lat="43.36678" lon="5.45659">
        <ele>241</ele>
        <time>2015-08-05T05:06:30Z</time>
      </trkpt>
      <trkpt lat="43.36688" lon="5.45657">
        <ele>241</ele>
        <time>2015-08-05T05:06:41Z</time>
      </trkpt>
      <trkpt lat="43.36697" lon="5.45654">
        <ele>241</ele>
        <time>2015-08-05T05:06:54Z</time>
      </trkpt>
      <trkpt lat="43.36703" lon="5.45644">
        <ele>241</ele>
        <time>2015-08-05T05:07:07Z</time>
      </trkpt>
      <trkpt lat="43.36711" lon="5.45638">
        <ele>248</ele>
        <time>2015-08-05T05:07:18Z</time>
      </trkpt>
      <trkpt lat="43.36717" lon="5.45628">
        <ele>253</ele>
        <time>2015-08-05T05:07:34Z</time>
      </trkpt>
      <trkpt lat="43.36719" lon="5.45616">
        <ele>253</ele>
        <time>2015-08-05T05:07:56Z</time>
      </trkpt>
      <trkpt lat="43.36724" lon="5.45604">
        <ele>253</ele>
        <time>2015-08-05T05:08:11Z</time>
      </trkpt>
      <trkpt lat="43.3673" lon="5.45595">
        <ele>253</ele>
        <time>2015-08-05T05:08:26Z</time>
      </trkpt>
      <trkpt lat="43.3674" lon="5.45594">
        <ele>253</ele>
        <time>2015-08-05T05:08:47Z</time>
      </trkpt>
      <trkpt lat="43.36749" lon="5.45598">
        <ele>253</ele>
        <time>2015-08-05T05:09:02Z</time>
      </trkpt>
      <trkpt lat="43.36758" lon="5.45597">
        <ele>253</ele>
        <time>2015-08-05T05:09:15Z</time>
      </trkpt>
      <trkpt lat="43.36766" lon="5.45591">
        <ele>253</ele>
        <time>2015-08-05T05:09:28Z</time>
      </trkpt>
      <trkpt lat="43.36772" lon="5.45581">
        <ele>253</ele>
        <time>2015-08-05T05:09:43Z</time>
      </trkpt>
      <trkpt lat="43.36777" lon="5.4557">
        <ele>253</ele>
        <time>2015-08-05T05:09:55Z</time>
      </trkpt>
      <trkpt lat="43.36783" lon="5.4556">
        <ele>253</ele>
        <time>2015-08-05T05:10:08Z</time>
      </trkpt>
      <trkpt lat="43.36791" lon="5.45554">
        <ele>264</ele>
        <time>2015-08-05T05:10:20Z</time>
      </trkpt>
      <trkpt lat="43.36796" lon="5.45543">
        <ele>264</ele>
        <time>2015-08-05T05:10:31Z</time>
      </trkpt>
      <trkpt lat="43.36799" lon="5.45532">
        <ele>264</ele>
        <time>2015-08-05T05:10:45Z</time>
      </trkpt>
      <trkpt lat="43.36798" lon="5.45519">
        <ele>251</ele>
        <time>2015-08-05T05:10:54Z</time>
      </trkpt>
      <trkpt lat="43.36808" lon="5.45515">
        <ele>251</ele>
        <time>2015-08-05T05:11:04Z</time>
      </trkpt>
      <trkpt lat="43.36816" lon="5.4551">
        <ele>251</ele>
        <time>2015-08-05T05:11:17Z</time>
      </trkpt>
      <trkpt lat="43.36826" lon="5.45506">
        <ele>251</ele>
        <time>2015-08-05T05:11:35Z</time>
      </trkpt>
      <trkpt lat="43.36835" lon="5.4551">
        <ele>257</ele>
        <time>2015-08-05T05:11:41Z</time>
      </trkpt>
      <trkpt lat="43.36844" lon="5.45513">
        <ele>257</ele>
        <time>2015-08-05T05:11:49Z</time>
      </trkpt>
      <trkpt lat="43.36853" lon="5.45515">
        <ele>257</ele>
        <time>2015-08-05T05:12:00Z</time>
      </trkpt>
      <trkpt lat="43.36862" lon="5.45515">
        <ele>257</ele>
        <time>2015-08-05T05:12:12Z</time>
      </trkpt>
      <trkpt lat="43.3687" lon="5.45507">
        <ele>257</ele>
        <time>2015-08-05T05:12:24Z</time>
      </trkpt>
      <trkpt lat="43.36876" lon="5.45498">
        <ele>257</ele>
        <time>2015-08-05T05:12:40Z</time>
      </trkpt>
      <trkpt lat="43.36884" lon="5.45489">
        <ele>257</ele>
        <time>2015-08-05T05:12:53Z</time>
      </trkpt>
      <trkpt lat="43.36891" lon="5.4548">
        <ele>266</ele>
        <time>2015-08-05T05:13:08Z</time>
      </trkpt>
      <trkpt lat="43.36897" lon="5.45471">
        <ele>266</ele>
        <time>2015-08-05T05:13:21Z</time>
      </trkpt>
      <trkpt lat="43.36905" lon="5.45464">
        <ele>266</ele>
        <time>2015-08-05T05:13:31Z</time>
      </trkpt>
      <trkpt lat="43.36909" lon="5.45453">
        <ele>259</ele>
        <time>2015-08-05T05:13:48Z</time>
      </trkpt>
      <trkpt lat="43.36918" lon="5.45453">
        <ele>259</ele>
        <time>2015-08-05T05:13:57Z</time>
      </trkpt>
      <trkpt lat="43.36926" lon="5.45448">
        <ele>259</ele>
        <time>2015-08-05T05:14:08Z</time>
      </trkpt>
      <trkpt lat="43.36935" lon="5.45444">
        <ele>259</ele>
        <time>2015-08-05T05:14:17Z</time>
      </trkpt>
      <trkpt lat="43.36943" lon="5.45436">
        <ele>259</ele>
        <time>2015-08-05T05:14:30Z</time>
      </trkpt>
      <trkpt lat="43.36949" lon="5.45427">
        <ele>253</ele>
        <time>2015-08-05T05:14:45Z</time>
      </trkpt>
      <trkpt lat="43.36958" lon="5.45422">
        <ele>253</ele>
        <time>2015-08-05T05:15:07Z</time>
      </trkpt>
      <trkpt lat="43.36968" lon="5.4542">
        <ele>253</ele>
        <time>2015-08-05T05:15:22Z</time>
      </trkpt>
      <trkpt lat="43.36975" lon="5.45413">
        <ele>253</ele>
        <time>2015-08-05T05:15:52Z</time>
      </trkpt>
      <trkpt lat="43.36983" lon="5.45419">
        <ele>253</ele>
        <time>2015-08-05T05:16:08Z</time>
      </trkpt>
      <trkpt lat="43.36992" lon="5.4542">
        <ele>269</ele>
        <time>2015-08-05T05:16:32Z</time>
      </trkpt>
      <trkpt lat="43.37001" lon="5.45419">
        <ele>262</ele>
        <time>2015-08-05T05:17:06Z</time>
      </trkpt>
      <trkpt lat="43.37008" lon="5.45409">
        <ele>262</ele>
        <time>2015-08-05T05:17:16Z</time>
      </trkpt>
      <trkpt lat="43.37017" lon="5.45408">
        <ele>279</ele>
        <time>2015-08-05T05:17:28Z</time>
      </trkpt>
      <trkpt lat="43.37027" lon="5.45408">
        <ele>279</ele>
        <time>2015-08-05T05:17:41Z</time>
      </trkpt>
      <trkpt lat="43.37036" lon="5.45412">
        <ele>279</ele>
        <time>2015-08-05T05:17:52Z</time>
      </trkpt>
      <trkpt lat="43.37044" lon="5.45418">
        <ele>279</ele>
        <time>2015-08-05T05:18:02Z</time>
      </trkpt>
      <trkpt lat="43.37053" lon="5.45423">
        <ele>271</ele>
        <time>2015-08-05T05:18:09Z</time>
      </trkpt>
      <trkpt lat="43.37061" lon="5.45419">
        <ele>271</ele>
        <time>2015-08-05T05:18:20Z</time>
      </trkpt>
      <trkpt lat="43.3707" lon="5.45416">
        <ele>271</ele>
        <time>2015-08-05T05:18:36Z</time>
      </trkpt>
      <trkpt lat="43.37079" lon="5.45412">
        <ele>271</ele>
        <time>2015-08-05T05:18:54Z</time>
      </trkpt>
      <trkpt lat="43.37085" lon="5.45402">
        <ele>280</ele>
        <time>2015-08-05T05:19:16Z</time>
      </trkpt>
      <trkpt lat="43.37077" lon="5.45396">
        <ele>268</ele>
        <time>2015-08-05T05:19:23Z</time>
      </trkpt>
      <trkpt lat="43.37087" lon="5.45395">
        <ele>268</ele>
        <time>2015-08-05T05:20:06Z</time>
      </trkpt>
      <trkpt lat="43.37095" lon="5.45403">
        <ele>276</ele>
        <time>2015-08-05T05:20:32Z</time>
      </trkpt>
      <trkpt lat="43.37103" lon="5.4541">
        <ele>276</ele>
        <time>2015-08-05T05:21:04Z</time>
      </trkpt>
      <trkpt lat="43.3711" lon="5.45418">
        <ele>276</ele>
        <time>2015-08-05T05:21:17Z</time>
      </trkpt>
      <trkpt lat="43.3712" lon="5.45419">
        <ele>276</ele>
        <time>2015-08-05T05:21:27Z</time>
      </trkpt>
      <trkpt lat="43.37127" lon="5.45426">
        <ele>276</ele>
        <time>2015-08-05T05:21:42Z</time>
      </trkpt>
      <trkpt lat="43.37136" lon="5.45431">
        <ele>276</ele>
        <time>2015-08-05T05:21:55Z</time>
      </trkpt>
      <trkpt lat="43.37145" lon="5.45432">
        <ele>276</ele>
        <time>2015-08-05T05:22:07Z</time>
      </trkpt>
      <trkpt lat="43.37154" lon="5.45427">
        <ele>276</ele>
        <time>2015-08-05T05:22:25Z</time>
      </trkpt>
      <trkpt lat="43.3716" lon="5.45418">
        <ele>276</ele>
        <time>2015-08-05T05:22:37Z</time>
      </trkpt>
      <trkpt lat="43.37169" lon="5.45413">
        <ele>276</ele>
        <time>2015-08-05T05:22:53Z</time>
      </trkpt>
      <trkpt lat="43.37177" lon="5.4542">
        <ele>281</ele>
        <time>2015-08-05T05:23:08Z</time>
      </trkpt>
      <trkpt lat="43.3718" lon="5.45433">
        <ele>281</ele>
        <time>2015-08-05T05:23:20Z</time>
      </trkpt>
      <trkpt lat="43.37185" lon="5.45443">
        <ele>281</ele>
        <time>2015-08-05T05:23:30Z</time>
      </trkpt>
      <trkpt lat="43.37194" lon="5.45444">
        <ele>281</ele>
        <time>2015-08-05T05:23:44Z</time>
      </trkpt>
      <trkpt lat="43.37202" lon="5.45436">
        <ele>274</ele>
        <time>2015-08-05T05:24:01Z</time>
      </trkpt>
      <trkpt lat="43.37211" lon="5.45436">
        <ele>274</ele>
        <time>2015-08-05T05:24:17Z</time>
      </trkpt>
      <trkpt lat="43.37219" lon="5.45444">
        <ele>280</ele>
        <time>2015-08-05T05:24:28Z</time>
      </trkpt>
      <trkpt lat="43.37227" lon="5.4545">
        <ele>280</ele>
        <time>2015-08-05T05:24:40Z</time>
      </trkpt>
      <trkpt lat="43.37234" lon="5.45457">
        <ele>280</ele>
        <time>2015-08-05T05:24:52Z</time>
      </trkpt>
      <trkpt lat="43.37241" lon="5.45466">
        <ele>280</ele>
        <time>2015-08-05T05:25:06Z</time>
      </trkpt>
      <trkpt lat="43.37251" lon="5.45468">
        <ele>280</ele>
        <time>2015-08-05T05:25:15Z</time>
      </trkpt>
      <trkpt lat="43.3726" lon="5.45469">
        <ele>280</ele>
        <time>2015-08-05T05:25:28Z</time>
      </trkpt>
      <trkpt lat="43.37268" lon="5.45462">
        <ele>280</ele>
        <time>2015-08-05T05:25:42Z</time>
      </trkpt>
      <trkpt lat="43.37277" lon="5.4546">
        <ele>280</ele>
        <time>2015-08-05T05:25:59Z</time>
      </trkpt>
      <trkpt lat="43.37283" lon="5.45451">
        <ele>280</ele>
        <time>2015-08-05T05:26:14Z</time>
      </trkpt>
      <trkpt lat="43.3729" lon="5.45442">
        <ele>280</ele>
        <time>2015-08-05T05:26:34Z</time>
      </trkpt>
      <trkpt lat="43.37295" lon="5.45431">
        <ele>286</ele>
        <time>2015-08-05T05:26:49Z</time>
      </trkpt>
      <trkpt lat="43.37299" lon="5.4542">
        <ele>298</ele>
        <time>2015-08-05T05:27:07Z</time>
      </trkpt>
      <trkpt lat="43.37308" lon="5.45417">
        <ele>289</ele>
        <time>2015-08-05T05:27:32Z</time>
      </trkpt>
      <trkpt lat="43.37315" lon="5.45426">
        <ele>294</ele>
        <time>2015-08-05T05:27:50Z</time>
      </trkpt>
      <trkpt lat="43.3732" lon="5.45436">
        <ele>294</ele>
        <time>2015-08-05T05:28:00Z</time>
      </trkpt>
      <trkpt lat="43.37329" lon="5.45436">
        <ele>294</ele>
        <time>2015-08-05T05:28:16Z</time>
      </trkpt>
      <trkpt lat="43.37338" lon="5.4543">
        <ele>294</ele>
        <time>2015-08-05T05:28:30Z</time>
      </trkpt>
      <trkpt lat="43.37345" lon="5.45423">
        <ele>294</ele>
        <time>2015-08-05T05:28:41Z</time>
      </trkpt>
      <trkpt lat="43.37354" lon="5.45417">
        <ele>294</ele>
        <time>2015-08-05T05:28:50Z</time>
      </trkpt>
      <trkpt lat="43.37363" lon="5.45415">
        <ele>294</ele>
        <time>2015-08-05T05:29:00Z</time>
      </trkpt>
      <trkpt lat="43.37372" lon="5.45417">
        <ele>294</ele>
        <time>2015-08-05T05:29:12Z</time>
      </trkpt>
      <trkpt lat="43.37382" lon="5.4542">
        <ele>294</ele>
        <time>2015-08-05T05:29:23Z</time>
      </trkpt>
      <trkpt lat="43.37391" lon="5.4542">
        <ele>294</ele>
        <time>2015-08-05T05:29:35Z</time>
      </trkpt>
      <trkpt lat="43.37401" lon="5.45421">
        <ele>294</ele>
        <time>2015-08-05T05:29:48Z</time>
      </trkpt>
      <trkpt lat="43.37409" lon="5.45425">
        <ele>294</ele>
        <time>2015-08-05T05:30:00Z</time>
      </trkpt>
      <trkpt lat="43.37418" lon="5.45428">
        <ele>294</ele>
        <time>2015-08-05T05:30:11Z</time>
      </trkpt>
      <trkpt lat="43.37427" lon="5.45427">
        <ele>294</ele>
        <time>2015-08-05T05:30:24Z</time>
      </trkpt>
      <trkpt lat="43.37435" lon="5.45436">
        <ele>305</ele>
        <time>2015-08-05T05:30:47Z</time>
      </trkpt>
      <trkpt lat="43.37437" lon="5.45447">
        <ele>305</ele>
        <time>2015-08-05T05:30:58Z</time>
      </trkpt>
      <trkpt lat="43.37443" lon="5.45457">
        <ele>305</ele>
        <time>2015-08-05T05:31:11Z</time>
      </trkpt>
      <trkpt lat="43.37451" lon="5.45464">
        <ele>305</ele>
        <time>2015-08-05T05:31:23Z</time>
      </trkpt>
      <trkpt lat="43.37459" lon="5.4547">
        <ele>305</ele>
        <time>2015-08-05T05:31:35Z</time>
      </trkpt>
      <trkpt lat="43.37468" lon="5.45471">
        <ele>298</ele>
        <time>2015-08-05T05:31:56Z</time>
      </trkpt>
      <trkpt lat="43.37477" lon="5.45467">
        <ele>298</ele>
        <time>2015-08-05T05:32:14Z</time>
      </trkpt>
      <trkpt lat="43.37484" lon="5.4546">
        <ele>298</ele>
        <time>2015-08-05T05:32:36Z</time>
      </trkpt>
      <trkpt lat="43.37492" lon="5.45453">
        <ele>298</ele>
        <time>2015-08-05T05:32:49Z</time>
      </trkpt>
      <trkpt lat="43.37502" lon="5.45451">
        <ele>304</ele>
        <time>2015-08-05T05:33:04Z</time>
      </trkpt>
      <trkpt lat="43.3751" lon="5.45445">
        <ele>304</ele>
        <time>2015-08-05T05:33:16Z</time>
      </trkpt>
      <trkpt lat="43.37519" lon="5.45444">
        <ele>304</ele>
        <time>2015-08-05T05:33:28Z</time>
      </trkpt>
      <trkpt lat="43.37527" lon="5.45436">
        <ele>304</ele>
        <time>2015-08-05T05:33:42Z</time>
      </trkpt>
      <trkpt lat="43.37534" lon="5.45428">
        <ele>304</ele>
        <time>2015-08-05T05:33:56Z</time>
      </trkpt>
      <trkpt lat="43.37543" lon="5.45424">
        <ele>304</ele>
        <time>2015-08-05T05:34:03Z</time>
      </trkpt>
      <trkpt lat="43.37551" lon="5.45418">
        <ele>304</ele>
        <time>2015-08-05T05:34:17Z</time>
      </trkpt>
      <trkpt lat="43.3756" lon="5.45414">
        <ele>298</ele>
        <time>2015-08-05T05:34:27Z</time>
      </trkpt>
      <trkpt lat="43.37568" lon="5.45408">
        <ele>298</ele>
        <time>2015-08-05T05:34:43Z</time>
      </trkpt>
      <trkpt lat="43.37576" lon="5.45404">
        <ele>304</ele>
        <time>2015-08-05T05:35:11Z</time>
      </trkpt>
      <trkpt lat="43.37586" lon="5.45402">
        <ele>304</ele>
        <time>2015-08-05T05:35:25Z</time>
      </trkpt>
      <trkpt lat="43.37595" lon="5.454">
        <ele>315</ele>
        <time>2015-08-05T05:35:50Z</time>
      </trkpt>
      <trkpt lat="43.37605" lon="5.45398">
        <ele>315</ele>
        <time>2015-08-05T05:36:05Z</time>
      </trkpt>
      <trkpt lat="43.37614" lon="5.45396">
        <ele>315</ele>
        <time>2015-08-05T05:36:25Z</time>
      </trkpt>
      <trkpt lat="43.37624" lon="5.45396">
        <ele>310</ele>
        <time>2015-08-05T05:36:38Z</time>
      </trkpt>
      <trkpt lat="43.37631" lon="5.45389">
        <ele>310</ele>
        <time>2015-08-05T05:36:55Z</time>
      </trkpt>
      <trkpt lat="43.3764" lon="5.45387">
        <ele>329</ele>
        <time>2015-08-05T05:37:26Z</time>
      </trkpt>
      <trkpt lat="43.37645" lon="5.45397">
        <ele>329</ele>
        <time>2015-08-05T05:37:49Z</time>
      </trkpt>
      <trkpt lat="43.37655" lon="5.45401">
        <ele>319</ele>
        <time>2015-08-05T05:38:15Z</time>
      </trkpt>
      <trkpt lat="43.37648" lon="5.45394">
        <ele>334</ele>
        <time>2015-08-05T05:39:01Z</time>
      </trkpt>
      <trkpt lat="43.37657" lon="5.45391">
        <ele>334</ele>
        <time>2015-08-05T05:39:22Z</time>
      </trkpt>
      <trkpt lat="43.37664" lon="5.45399">
        <ele>325</ele>
        <time>2015-08-05T05:39:36Z</time>
      </trkpt>
      <trkpt lat="43.37674" lon="5.454">
        <ele>325</ele>
        <time>2015-08-05T05:39:45Z</time>
      </trkpt>
      <trkpt lat="43.37683" lon="5.45402">
        <ele>337</ele>
        <time>2015-08-05T05:39:58Z</time>
      </trkpt>
      <trkpt lat="43.37692" lon="5.45409">
        <ele>337</ele>
        <time>2015-08-05T05:40:07Z</time>
      </trkpt>
      <trkpt lat="43.37701" lon="5.45409">
        <ele>337</ele>
        <time>2015-08-05T05:40:17Z</time>
      </trkpt>
      <trkpt lat="43.3771" lon="5.4541">
        <ele>337</ele>
        <time>2015-08-05T05:40:35Z</time>
      </trkpt>
      <trkpt lat="43.3772" lon="5.45411">
        <ele>337</ele>
        <time>2015-08-05T05:40:42Z</time>
      </trkpt>
      <trkpt lat="43.3773" lon="5.45412">
        <ele>329</ele>
        <time>2015-08-05T05:41:05Z</time>
      </trkpt>
      <trkpt lat="43.37739" lon="5.45406">
        <ele>322</ele>
        <time>2015-08-05T05:41:12Z</time>
      </trkpt>
      <trkpt lat="43.37746" lon="5.45398">
        <ele>306</ele>
        <time>2015-08-05T05:41:30Z</time>
      </trkpt>
      <trkpt lat="43.37753" lon="5.45388">
        <ele>313</ele>
        <time>2015-08-05T05:41:40Z</time>
      </trkpt>
      <trkpt lat="43.3776" lon="5.45379">
        <ele>319</ele>
        <time>2015-08-05T05:41:52Z</time>
      </trkpt>
      <trkpt lat="43.37769" lon="5.45374">
        <ele>324</ele>
        <time>2015-08-05T05:42:35Z</time>
      </trkpt>
      <trkpt lat="43.37778" lon="5.4537">
        <ele>324</ele>
        <time>2015-08-05T05:42:43Z</time>
      </trkpt>
      <trkpt lat="43.37785" lon="5.45362">
        <ele>324</ele>
        <time>2015-08-05T05:42:53Z</time>
      </trkpt>
      <trkpt lat="43.37793" lon="5.45357">
        <ele>324</ele>
        <time>2015-08-05T05:43:02Z</time>
      </trkpt>
      <trkpt lat="43.37801" lon="5.4535">
        <ele>324</ele>
        <time>2015-08-05T05:43:18Z</time>
      </trkpt>
      <trkpt lat="43.3781" lon="5.45344">
        <ele>324</ele>
        <time>2015-08-05T05:43:28Z</time>
      </trkpt>
      <trkpt lat="43.37818" lon="5.45338">
        <ele>324</ele>
        <time>2015-08-05T05:43:40Z</time>
      </trkpt>
      <trkpt lat="43.37829" lon="5.45335">
        <ele>324</ele>
        <time>2015-08-05T05:43:50Z</time>
      </trkpt>
      <trkpt lat="43.37837" lon="5.45331">
        <ele>330</ele>
        <time>2015-08-05T05:44:02Z</time>
      </trkpt>
      <trkpt lat="43.37846" lon="5.45328">
        <ele>330</ele>
        <time>2015-08-05T05:44:07Z</time>
      </trkpt>
      <trkpt lat="43.37855" lon="5.45325">
        <ele>330</ele>
        <time>2015-08-05T05:44:13Z</time>
      </trkpt>
      <trkpt lat="43.37865" lon="5.45322">
        <ele>330</ele>
        <time>2015-08-05T05:44:21Z</time>
      </trkpt>
      <trkpt lat="43.37874" lon="5.4532">
        <ele>330</ele>
        <time>2015-08-05T05:44:27Z</time>
      </trkpt>
      <trkpt lat="43.37882" lon="5.45316">
        <ele>338</ele>
        <time>2015-08-05T05:44:35Z</time>
      </trkpt>
      <trkpt lat="43.37893" lon="5.45316">
        <ele>338</ele>
        <time>2015-08-05T05:44:42Z</time>
      </trkpt>
      <trkpt lat="43.37902" lon="5.45317">
        <ele>338</ele>
        <time>2015-08-05T05:44:49Z</time>
      </trkpt>
      <trkpt lat="43.37911" lon="5.45317">
        <ele>333</ele>
        <time>2015-08-05T05:44:57Z</time>
      </trkpt>
      <trkpt lat="43.3792" lon="5.45313">
        <ele>325</ele>
        <time>2015-08-05T05:45:17Z</time>
      </trkpt>
      <trkpt lat="43.37928" lon="5.45318">
        <ele>325</ele>
        <time>2015-08-05T05:45:44Z</time>
      </trkpt>
      <trkpt lat="43.37937" lon="5.45323">
        <ele>332</ele>
        <time>2015-08-05T05:46:06Z</time>
      </trkpt>
      <trkpt lat="43.37945" lon="5.45329">
        <ele>324</ele>
        <time>2015-08-05T05:46:43Z</time>
      </trkpt>
      <trkpt lat="43.37954" lon="5.45334">
        <ele>324</ele>
        <time>2015-08-05T05:46:54Z</time>
      </trkpt>
      <trkpt lat="43.37961" lon="5.45342">
        <ele>324</ele>
        <time>2015-08-05T05:47:07Z</time>
      </trkpt>
      <trkpt lat="43.37968" lon="5.4535">
        <ele>332</ele>
        <time>2015-08-05T05:47:30Z</time>
      </trkpt>
      <trkpt lat="43.37973" lon="5.45361">
        <ele>332</ele>
        <time>2015-08-05T05:47:51Z</time>
      </trkpt>
      <trkpt lat="43.3798" lon="5.4537">
        <ele>325</ele>
        <time>2015-08-05T05:48:10Z</time>
      </trkpt>
      <trkpt lat="43.37985" lon="5.4538">
        <ele>325</ele>
        <time>2015-08-05T05:48:22Z</time>
      </trkpt>
      <trkpt lat="43.37992" lon="5.45391">
        <ele>333</ele>
        <time>2015-08-05T05:48:36Z</time>
      </trkpt>
      <trkpt lat="43.37999" lon="5.45399">
        <ele>333</ele>
        <time>2015-08-05T05:48:51Z</time>
      </trkpt>
      <trkpt lat="43.38007" lon="5.45406">
        <ele>333</ele>
        <time>2015-08-05T05:49:04Z</time>
      </trkpt>
      <trkpt lat="43.38013" lon="5.45415">
        <ele>333</ele>
        <time>2015-08-05T05:49:19Z</time>
      </trkpt>
      <trkpt lat="43.3802" lon="5.45424">
        <ele>333</ele>
        <time>2015-08-05T05:49:31Z</time>
      </trkpt>
      <trkpt lat="43.38025" lon="5.45435">
        <ele>333</ele>
        <time>2015-08-05T05:49:43Z</time>
      </trkpt>
      <trkpt lat="43.38028" lon="5.45446">
        <ele>333</ele>
        <time>2015-08-05T05:49:56Z</time>
      </trkpt>
      <trkpt lat="43.38035" lon="5.45455">
        <ele>339</ele>
        <time>2015-08-05T05:50:09Z</time>
      </trkpt>
      <trkpt lat="43.38042" lon="5.45463">
        <ele>339</ele>
        <time>2015-08-05T05:50:21Z</time>
      </trkpt>
      <trkpt lat="43.38049" lon="5.45472">
        <ele>334</ele>
        <time>2015-08-05T05:50:33Z</time>
      </trkpt>
      <trkpt lat="43.38057" lon="5.45478">
        <ele>334</ele>
        <time>2015-08-05T05:50:44Z</time>
      </trkpt>
      <trkpt lat="43.38065" lon="5.45486">
        <ele>334</ele>
        <time>2015-08-05T05:50:57Z</time>
      </trkpt>
      <trkpt lat="43.38074" lon="5.4549">
        <ele>334</ele>
        <time>2015-08-05T05:51:12Z</time>
      </trkpt>
      <trkpt lat="43.38081" lon="5.45498">
        <ele>334</ele>
        <time>2015-08-05T05:53:25Z</time>
      </trkpt>
      <trkpt lat="43.3809" lon="5.455">
        <ele>334</ele>
        <time>2015-08-05T05:57:06Z</time>
      </trkpt>
      <trkpt lat="43.38099" lon="5.45497">
        <ele>334</ele>
        <time>2015-08-05T05:57:21Z</time>
      </trkpt>
      <trkpt lat="43.38108" lon="5.45494">
        <ele>340</ele>
        <time>2015-08-05T05:57:35Z</time>
      </trkpt>
      <trkpt lat="43.38117" lon="5.45493">
        <ele>340</ele>
        <time>2015-08-05T05:57:47Z</time>
      </trkpt>
      <trkpt lat="43.38125" lon="5.45487">
        <ele>340</ele>
        <time>2015-08-05T05:58:01Z</time>
      </trkpt>
      <trkpt lat="43.38134" lon="5.45483">
        <ele>340</ele>
        <time>2015-08-05T05:58:22Z</time>
      </trkpt>
      <trkpt lat="43.38143" lon="5.45482">
        <ele>340</ele>
        <time>2015-08-05T05:58:34Z</time>
      </trkpt>
      <trkpt lat="43.38152" lon="5.45482">
        <ele>340</ele>
        <time>2015-08-05T05:58:47Z</time>
      </trkpt>
      <trkpt lat="43.38161" lon="5.45481">
        <ele>340</ele>
        <time>2015-08-05T05:58:57Z</time>
      </trkpt>
      <trkpt lat="43.38169" lon="5.45472">
        <ele>340</ele>
        <time>2015-08-05T05:59:10Z</time>
      </trkpt>
      <trkpt lat="43.38177" lon="5.45467">
        <ele>340</ele>
        <time>2015-08-05T05:59:24Z</time>
      </trkpt>
      <trkpt lat="43.38184" lon="5.45459">
        <ele>349</ele>
        <time>2015-08-05T05:59:39Z</time>
      </trkpt>
      <trkpt lat="43.38192" lon="5.45453">
        <ele>349</ele>
        <time>2015-08-05T05:59:52Z</time>
      </trkpt>
      <trkpt lat="43.38199" lon="5.45445">
        <ele>349</ele>
        <time>2015-08-05T06:00:17Z</time>
      </trkpt>
      <trkpt lat="43.38208" lon="5.45441">
        <ele>349</ele>
        <time>2015-08-05T06:00:29Z</time>
      </trkpt>
      <trkpt lat="43.38216" lon="5.45435">
        <ele>349</ele>
        <time>2015-08-05T06:01:11Z</time>
      </trkpt>
      <trkpt lat="43.38211" lon="5.45445">
        <ele>349</ele>
        <time>2015-08-05T06:05:32Z</time>
      </trkpt>
      <trkpt lat="43.38204" lon="5.45453">
        <ele>349</ele>
        <time>2015-08-05T06:05:43Z</time>
      </trkpt>
      <trkpt lat="43.38197" lon="5.45463">
        <ele>349</ele>
        <time>2015-08-05T06:05:54Z</time>
      </trkpt>
      <trkpt lat="43.3819" lon="5.45473">
        <ele>349</ele>
        <time>2015-08-05T06:06:03Z</time>
      </trkpt>
      <trkpt lat="43.38183" lon="5.45481">
        <ele>349</ele>
        <time>2015-08-05T06:06:12Z</time>
      </trkpt>
      <trkpt lat="43.38176" lon="5.4549">
        <ele>349</ele>
        <time>2015-08-05T06:06:22Z</time>
      </trkpt>
      <trkpt lat="43.38169" lon="5.45498">
        <ele>349</ele>
        <time>2015-08-05T06:06:31Z</time>
      </trkpt>
      <trkpt lat="43.38161" lon="5.45506">
        <ele>349</ele>
        <time>2015-08-05T06:06:41Z</time>
      </trkpt>
      <trkpt lat="43.38153" lon="5.45512">
        <ele>349</ele>
        <time>2015-08-05T06:06:51Z</time>
      </trkpt>
      <trkpt lat="43.38145" lon="5.45518">
        <ele>349</ele>
        <time>2015-08-05T06:07:03Z</time>
      </trkpt>
      <trkpt lat="43.38137" lon="5.45525">
        <ele>349</ele>
        <time>2015-08-05T06:07:15Z</time>
      </trkpt>
      <trkpt lat="43.3813" lon="5.45533">
        <ele>349</ele>
        <time>2015-08-05T06:07:27Z</time>
      </trkpt>
      <trkpt lat="43.38123" lon="5.45542">
        <ele>349</ele>
        <time>2015-08-05T06:07:37Z</time>
      </trkpt>
      <trkpt lat="43.38115" lon="5.45549">
        <ele>349</ele>
        <time>2015-08-05T06:07:47Z</time>
      </trkpt>
      <trkpt lat="43.38106" lon="5.45552">
        <ele>354</ele>
        <time>2015-08-05T06:07:57Z</time>
      </trkpt>
      <trkpt lat="43.38097" lon="5.45555">
        <ele>354</ele>
        <time>2015-08-05T06:08:09Z</time>
      </trkpt>
      <trkpt lat="43.38088" lon="5.45558">
        <ele>354</ele>
        <time>2015-08-05T06:08:20Z</time>
      </trkpt>
      <trkpt lat="43.38079" lon="5.45559">
        <ele>360</ele>
        <time>2015-08-05T06:08:39Z</time>
      </trkpt>
      <trkpt lat="43.3807" lon="5.45561">
        <ele>360</ele>
        <time>2015-08-05T06:08:51Z</time>
      </trkpt>
      <trkpt lat="43.38061" lon="5.45562">
        <ele>360</ele>
        <time>2015-08-05T06:09:01Z</time>
      </trkpt>
      <trkpt lat="43.38051" lon="5.45562">
        <ele>360</ele>
        <time>2015-08-05T06:09:12Z</time>
      </trkpt>
      <trkpt lat="43.38042" lon="5.45561">
        <ele>360</ele>
        <time>2015-08-05T06:09:22Z</time>
      </trkpt>
      <trkpt lat="43.38032" lon="5.4556">
        <ele>360</ele>
        <time>2015-08-05T06:09:34Z</time>
      </trkpt>
      <trkpt lat="43.38023" lon="5.4556">
        <ele>360</ele>
        <time>2015-08-05T06:09:47Z</time>
      </trkpt>
      <trkpt lat="43.38014" lon="5.45559">
        <ele>360</ele>
        <time>2015-08-05T06:10:05Z</time>
      </trkpt>
      <trkpt lat="43.38005" lon="5.45558">
        <ele>366</ele>
        <time>2015-08-05T06:10:17Z</time>
      </trkpt>
      <trkpt lat="43.37996" lon="5.45554">
        <ele>366</ele>
        <time>2015-08-05T06:10:28Z</time>
      </trkpt>
      <trkpt lat="43.37988" lon="5.4555">
        <ele>366</ele>
        <time>2015-08-05T06:10:37Z</time>
      </trkpt>
      <trkpt lat="43.37979" lon="5.45546">
        <ele>366</ele>
        <time>2015-08-05T06:10:48Z</time>
      </trkpt>
      <trkpt lat="43.3797" lon="5.45545">
        <ele>366</ele>
        <time>2015-08-05T06:10:59Z</time>
      </trkpt>
      <trkpt lat="43.3796" lon="5.45545">
        <ele>373</ele>
        <time>2015-08-05T06:11:08Z</time>
      </trkpt>
      <trkpt lat="43.37951" lon="5.45547">
        <ele>373</ele>
        <time>2015-08-05T06:11:19Z</time>
      </trkpt>
      <trkpt lat="43.37942" lon="5.45552">
        <ele>373</ele>
        <time>2015-08-05T06:11:28Z</time>
      </trkpt>
      <trkpt lat="43.37937" lon="5.45563">
        <ele>373</ele>
        <time>2015-08-05T06:11:38Z</time>
      </trkpt>
      <trkpt lat="43.37935" lon="5.45576">
        <ele>373</ele>
        <time>2015-08-05T06:11:51Z</time>
      </trkpt>
      <trkpt lat="43.37942" lon="5.45585">
        <ele>373</ele>
        <time>2015-08-05T06:12:04Z</time>
      </trkpt>
      <trkpt lat="43.37947" lon="5.45595">
        <ele>373</ele>
        <time>2015-08-05T06:12:13Z</time>
      </trkpt>
      <trkpt lat="43.37953" lon="5.45604">
        <ele>381</ele>
        <time>2015-08-05T06:12:22Z</time>
      </trkpt>
      <trkpt lat="43.37958" lon="5.45614">
        <ele>381</ele>
        <time>2015-08-05T06:12:29Z</time>
      </trkpt>
      <trkpt lat="43.37963" lon="5.45625">
        <ele>381</ele>
        <time>2015-08-05T06:12:37Z</time>
      </trkpt>
      <trkpt lat="43.37968" lon="5.45636">
        <ele>381</ele>
        <time>2015-08-05T06:12:45Z</time>
      </trkpt>
      <trkpt lat="43.37975" lon="5.45647">
        <ele>381</ele>
        <time>2015-08-05T06:12:52Z</time>
      </trkpt>
      <trkpt lat="43.37981" lon="5.45657">
        <ele>381</ele>
        <time>2015-08-05T06:13:00Z</time>
      </trkpt>
      <trkpt lat="43.37986" lon="5.45667">
        <ele>381</ele>
        <time>2015-08-05T06:13:08Z</time>
      </trkpt>
      <trkpt lat="43.3799" lon="5.4568">
        <ele>372</ele>
        <time>2015-08-05T06:13:16Z</time>
      </trkpt>
      <trkpt lat="43.37997" lon="5.4569">
        <ele>372</ele>
        <time>2015-08-05T06:13:24Z</time>
      </trkpt>
      <trkpt lat="43.38004" lon="5.457">
        <ele>372</ele>
        <time>2015-08-05T06:13:33Z</time>
      </trkpt>
      <trkpt lat="43.38011" lon="5.45707">
        <ele>372</ele>
        <time>2015-08-05T06:13:42Z</time>
      </trkpt>
      <trkpt lat="43.38019" lon="5.45712">
        <ele>367</ele>
        <time>2015-08-05T06:13:50Z</time>
      </trkpt>
      <trkpt lat="43.38028" lon="5.45715">
        <ele>367</ele>
        <time>2015-08-05T06:14:00Z</time>
      </trkpt>
      <trkpt lat="43.38037" lon="5.45719">
        <ele>367</ele>
        <time>2015-08-05T06:14:09Z</time>
      </trkpt>
      <trkpt lat="43.38046" lon="5.45721">
        <ele>367</ele>
        <time>2015-08-05T06:14:17Z</time>
      </trkpt>
      <trkpt lat="43.38055" lon="5.45725">
        <ele>367</ele>
        <time>2015-08-05T06:14:26Z</time>
      </trkpt>
      <trkpt lat="43.38064" lon="5.45728">
        <ele>367</ele>
        <time>2015-08-05T06:14:34Z</time>
      </trkpt>
      <trkpt lat="43.38072" lon="5.45733">
        <ele>367</ele>
        <time>2015-08-05T06:14:42Z</time>
      </trkpt>
      <trkpt lat="43.38082" lon="5.45736">
        <ele>367</ele>
        <time>2015-08-05T06:14:54Z</time>
      </trkpt>
      <trkpt lat="43.38091" lon="5.45742">
        <ele>367</ele>
        <time>2015-08-05T06:15:01Z</time>
      </trkpt>
      <trkpt lat="43.38101" lon="5.45747">
        <ele>367</ele>
        <time>2015-08-05T06:15:09Z</time>
      </trkpt>
      <trkpt lat="43.38107" lon="5.45756">
        <ele>367</ele>
        <time>2015-08-05T06:15:19Z</time>
      </trkpt>
      <trkpt lat="43.38111" lon="5.45768">
        <ele>367</ele>
        <time>2015-08-05T06:15:42Z</time>
      </trkpt>
      <trkpt lat="43.38105" lon="5.45778">
        <ele>367</ele>
        <time>2015-08-05T06:15:52Z</time>
      </trkpt>
      <trkpt lat="43.38099" lon="5.45788">
        <ele>367</ele>
        <time>2015-08-05T06:16:02Z</time>
      </trkpt>
      <trkpt lat="43.38093" lon="5.45798">
        <ele>367</ele>
        <time>2015-08-05T06:16:11Z</time>
      </trkpt>
      <trkpt lat="43.38087" lon="5.45808">
        <ele>367</ele>
        <time>2015-08-05T06:16:20Z</time>
      </trkpt>
      <trkpt lat="43.38082" lon="5.45819">
        <ele>367</ele>
        <time>2015-08-05T06:16:29Z</time>
      </trkpt>
      <trkpt lat="43.38075" lon="5.45828">
        <ele>367</ele>
        <time>2015-08-05T06:16:37Z</time>
      </trkpt>
      <trkpt lat="43.38068" lon="5.45837">
        <ele>367</ele>
        <time>2015-08-05T06:16:46Z</time>
      </trkpt>
      <trkpt lat="43.38061" lon="5.45844">
        <ele>367</ele>
        <time>2015-08-05T06:16:55Z</time>
      </trkpt>
      <trkpt lat="43.38053" lon="5.45853">
        <ele>367</ele>
        <time>2015-08-05T06:17:04Z</time>
      </trkpt>
      <trkpt lat="43.38046" lon="5.45861">
        <ele>362</ele>
        <time>2015-08-05T06:17:13Z</time>
      </trkpt>
      <trkpt lat="43.38041" lon="5.45873">
        <ele>362</ele>
        <time>2015-08-05T06:17:22Z</time>
      </trkpt>
      <trkpt lat="43.38035" lon="5.45883">
        <ele>362</ele>
        <time>2015-08-05T06:17:31Z</time>
      </trkpt>
      <trkpt lat="43.38032" lon="5.45895">
        <ele>362</ele>
        <time>2015-08-05T06:17:40Z</time>
      </trkpt>
      <trkpt lat="43.3803" lon="5.45908">
        <ele>362</ele>
        <time>2015-08-05T06:17:50Z</time>
      </trkpt>
      <trkpt lat="43.38028" lon="5.45921">
        <ele>362</ele>
        <time>2015-08-05T06:18:00Z</time>
      </trkpt>
      <trkpt lat="43.38026" lon="5.45933">
        <ele>362</ele>
        <time>2015-08-05T06:18:10Z</time>
      </trkpt>
      <trkpt lat="43.38025" lon="5.45947">
        <ele>362</ele>
        <time>2015-08-05T06:18:19Z</time>
      </trkpt>
      <trkpt lat="43.38023" lon="5.45962">
        <ele>362</ele>
        <time>2015-08-05T06:18:28Z</time>
      </trkpt>
      <trkpt lat="43.38019" lon="5.45975">
        <ele>362</ele>
        <time>2015-08-05T06:18:37Z</time>
      </trkpt>
      <trkpt lat="43.38013" lon="5.45985">
        <ele>362</ele>
        <time>2015-08-05T06:18:43Z</time>
      </trkpt>
      <trkpt lat="43.38006" lon="5.45994">
        <ele>362</ele>
        <time>2015-08-05T06:18:52Z</time>
      </trkpt>
      <trkpt lat="43.38" lon="5.46004">
        <ele>362</ele>
        <time>2015-08-05T06:19:00Z</time>
      </trkpt>
      <trkpt lat="43.37995" lon="5.46017">
        <ele>362</ele>
        <time>2015-08-05T06:19:11Z</time>
      </trkpt>
      <trkpt lat="43.37996" lon="5.46029">
        <ele>362</ele>
        <time>2015-08-05T06:19:20Z</time>
      </trkpt>
      <trkpt lat="43.38001" lon="5.46041">
        <ele>362</ele>
        <time>2015-08-05T06:19:28Z</time>
      </trkpt>
      <trkpt lat="43.38008" lon="5.46051">
        <ele>362</ele>
        <time>2015-08-05T06:19:36Z</time>
      </trkpt>
      <trkpt lat="43.38015" lon="5.46061">
        <ele>362</ele>
        <time>2015-08-05T06:19:44Z</time>
      </trkpt>
      <trkpt lat="43.38021" lon="5.46071">
        <ele>355</ele>
        <time>2015-08-05T06:19:52Z</time>
      </trkpt>
      <trkpt lat="43.38028" lon="5.4608">
        <ele>355</ele>
        <time>2015-08-05T06:20:00Z</time>
      </trkpt>
      <trkpt lat="43.38035" lon="5.46089">
        <ele>355</ele>
        <time>2015-08-05T06:20:08Z</time>
      </trkpt>
      <trkpt lat="43.38042" lon="5.46097">
        <ele>355</ele>
        <time>2015-08-05T06:20:16Z</time>
      </trkpt>
      <trkpt lat="43.38049" lon="5.46106">
        <ele>355</ele>
        <time>2015-08-05T06:20:24Z</time>
      </trkpt>
      <trkpt lat="43.38056" lon="5.46116">
        <ele>355</ele>
        <time>2015-08-05T06:20:32Z</time>
      </trkpt>
      <trkpt lat="43.38061" lon="5.46125">
        <ele>355</ele>
        <time>2015-08-05T06:20:39Z</time>
      </trkpt>
      <trkpt lat="43.38068" lon="5.46134">
        <ele>355</ele>
        <time>2015-08-05T06:20:47Z</time>
      </trkpt>
      <trkpt lat="43.38074" lon="5.46144">
        <ele>355</ele>
        <time>2015-08-05T06:20:55Z</time>
      </trkpt>
      <trkpt lat="43.38072" lon="5.46157">
        <ele>355</ele>
        <time>2015-08-05T06:21:05Z</time>
      </trkpt>
      <trkpt lat="43.38066" lon="5.46167">
        <ele>355</ele>
        <time>2015-08-05T06:21:13Z</time>
      </trkpt>
      <trkpt lat="43.38057" lon="5.46169">
        <ele>355</ele>
        <time>2015-08-05T06:21:21Z</time>
      </trkpt>
      <trkpt lat="43.38047" lon="5.46169">
        <ele>355</ele>
        <time>2015-08-05T06:21:30Z</time>
      </trkpt>
      <trkpt lat="43.38038" lon="5.46168">
        <ele>355</ele>
        <time>2015-08-05T06:21:38Z</time>
      </trkpt>
      <trkpt lat="43.38028" lon="5.46168">
        <ele>355</ele>
        <time>2015-08-05T06:21:46Z</time>
      </trkpt>
      <trkpt lat="43.38019" lon="5.46169">
        <ele>355</ele>
        <time>2015-08-05T06:21:55Z</time>
      </trkpt>
      <trkpt lat="43.38009" lon="5.4617">
        <ele>355</ele>
        <time>2015-08-05T06:22:03Z</time>
      </trkpt>
      <trkpt lat="43.38" lon="5.46172">
        <ele>350</ele>
        <time>2015-08-05T06:22:10Z</time>
      </trkpt>
      <trkpt lat="43.3799" lon="5.46174">
        <ele>350</ele>
        <time>2015-08-05T06:22:17Z</time>
      </trkpt>
      <trkpt lat="43.37981" lon="5.46177">
        <ele>350</ele>
        <time>2015-08-05T06:22:25Z</time>
      </trkpt>
      <trkpt lat="43.37971" lon="5.46178">
        <ele>350</ele>
        <time>2015-08-05T06:22:32Z</time>
      </trkpt>
      <trkpt lat="43.37962" lon="5.46181">
        <ele>350</ele>
        <time>2015-08-05T06:22:39Z</time>
      </trkpt>
      <trkpt lat="43.37953" lon="5.46184">
        <ele>350</ele>
        <time>2015-08-05T06:22:47Z</time>
      </trkpt>
      <trkpt lat="43.37943" lon="5.46187">
        <ele>350</ele>
        <time>2015-08-05T06:22:55Z</time>
      </trkpt>
      <trkpt lat="43.37935" lon="5.46195">
        <ele>350</ele>
        <time>2015-08-05T06:23:18Z</time>
      </trkpt>
      <trkpt lat="43.37933" lon="5.46207">
        <ele>350</ele>
        <time>2015-08-05T06:23:29Z</time>
      </trkpt>
      <trkpt lat="43.37939" lon="5.46219">
        <ele>350</ele>
        <time>2015-08-05T06:23:41Z</time>
      </trkpt>
      <trkpt lat="43.37945" lon="5.46228">
        <ele>350</ele>
        <time>2015-08-05T06:23:50Z</time>
      </trkpt>
      <trkpt lat="43.37952" lon="5.46237">
        <ele>350</ele>
        <time>2015-08-05T06:23:59Z</time>
      </trkpt>
      <trkpt lat="43.37958" lon="5.46247">
        <ele>350</ele>
        <time>2015-08-05T06:24:10Z</time>
      </trkpt>
      <trkpt lat="43.37966" lon="5.46254">
        <ele>350</ele>
        <time>2015-08-05T06:24:19Z</time>
      </trkpt>
      <trkpt lat="43.37974" lon="5.46258">
        <ele>350</ele>
        <time>2015-08-05T06:24:27Z</time>
      </trkpt>
      <trkpt lat="43.37983" lon="5.46258">
        <ele>350</ele>
        <time>2015-08-05T06:24:36Z</time>
      </trkpt>
      <trkpt lat="43.37992" lon="5.46261">
        <ele>350</ele>
        <time>2015-08-05T06:24:45Z</time>
      </trkpt>
      <trkpt lat="43.38002" lon="5.46267">
        <ele>356</ele>
        <time>2015-08-05T06:24:55Z</time>
      </trkpt>
      <trkpt lat="43.3801" lon="5.46272">
        <ele>356</ele>
        <time>2015-08-05T06:25:03Z</time>
      </trkpt>
      <trkpt lat="43.38019" lon="5.46271">
        <ele>356</ele>
        <time>2015-08-05T06:25:14Z</time>
      </trkpt>
      <trkpt lat="43.38027" lon="5.46279">
        <ele>356</ele>
        <time>2015-08-05T06:25:36Z</time>
      </trkpt>
      <trkpt lat="43.3803" lon="5.46291">
        <ele>356</ele>
        <time>2015-08-05T06:25:56Z</time>
      </trkpt>
      <trkpt lat="43.38032" lon="5.46303">
        <ele>356</ele>
        <time>2015-08-05T06:26:28Z</time>
      </trkpt>
      <trkpt lat="43.38039" lon="5.46313">
        <ele>356</ele>
        <time>2015-08-05T06:26:39Z</time>
      </trkpt>
      <trkpt lat="43.38044" lon="5.46323">
        <ele>356</ele>
        <time>2015-08-05T06:27:02Z</time>
      </trkpt>
      <trkpt lat="43.38039" lon="5.46335">
        <ele>356</ele>
        <time>2015-08-05T06:27:12Z</time>
      </trkpt>
      <trkpt lat="43.38034" lon="5.46346">
        <ele>356</ele>
        <time>2015-08-05T06:27:22Z</time>
      </trkpt>
      <trkpt lat="43.38038" lon="5.46336">
        <ele>356</ele>
        <time>2015-08-05T06:28:13Z</time>
      </trkpt>
      <trkpt lat="43.38044" lon="5.46325">
        <ele>361</ele>
        <time>2015-08-05T06:28:24Z</time>
      </trkpt>
      <trkpt lat="43.38049" lon="5.46315">
        <ele>361</ele>
        <time>2015-08-05T06:28:34Z</time>
      </trkpt>
      <trkpt lat="43.38057" lon="5.46321">
        <ele>361</ele>
        <time>2015-08-05T06:28:44Z</time>
      </trkpt>
      <trkpt lat="43.38065" lon="5.4633">
        <ele>361</ele>
        <time>2015-08-05T06:28:53Z</time>
      </trkpt>
      <trkpt lat="43.3807" lon="5.4634">
        <ele>361</ele>
        <time>2015-08-05T06:29:09Z</time>
      </trkpt>
      <trkpt lat="43.38065" lon="5.4633">
        <ele>361</ele>
        <time>2015-08-05T06:29:30Z</time>
      </trkpt>
      <trkpt lat="43.38058" lon="5.46322">
        <ele>361</ele>
        <time>2015-08-05T06:29:39Z</time>
      </trkpt>
      <trkpt lat="43.38049" lon="5.46325">
        <ele>361</ele>
        <time>2015-08-05T06:29:55Z</time>
      </trkpt>
      <trkpt lat="43.38042" lon="5.46333">
        <ele>361</ele>
        <time>2015-08-05T06:30:15Z</time>
      </trkpt>
      <trkpt lat="43.38046" lon="5.46322">
        <ele>361</ele>
        <time>2015-08-05T06:30:33Z</time>
      </trkpt>
      <trkpt lat="43.38049" lon="5.4631">
        <ele>361</ele>
        <time>2015-08-05T06:30:44Z</time>
      </trkpt>
      <trkpt lat="43.38051" lon="5.46298">
        <ele>366</ele>
        <time>2015-08-05T06:30:58Z</time>
      </trkpt>
      <trkpt lat="43.38055" lon="5.46287">
        <ele>359</ele>
        <time>2015-08-05T06:31:47Z</time>
      </trkpt>
      <trkpt lat="43.38065" lon="5.46284">
        <ele>359</ele>
        <time>2015-08-05T06:32:43Z</time>
      </trkpt>
      <trkpt lat="43.3807" lon="5.46294">
        <ele>359</ele>
        <time>2015-08-05T06:32:53Z</time>
      </trkpt>
      <trkpt lat="43.38077" lon="5.46303">
        <ele>359</ele>
        <time>2015-08-05T06:33:03Z</time>
      </trkpt>
      <trkpt lat="43.38083" lon="5.46313">
        <ele>359</ele>
        <time>2015-08-05T06:33:12Z</time>
      </trkpt>
      <trkpt lat="43.38088" lon="5.46324">
        <ele>359</ele>
        <time>2015-08-05T06:33:23Z</time>
      </trkpt>
      <trkpt lat="43.38091" lon="5.46336">
        <ele>359</ele>
        <time>2015-08-05T06:33:32Z</time>
      </trkpt>
      <trkpt lat="43.38095" lon="5.46347">
        <ele>359</ele>
        <time>2015-08-05T06:33:44Z</time>
      </trkpt>
      <trkpt lat="43.38088" lon="5.46337">
        <ele>359</ele>
        <time>2015-08-05T06:34:02Z</time>
      </trkpt>
      <trkpt lat="43.38086" lon="5.46325">
        <ele>367</ele>
        <time>2015-08-05T06:34:14Z</time>
      </trkpt>
      <trkpt lat="43.38093" lon="5.46316">
        <ele>367</ele>
        <time>2015-08-05T06:35:04Z</time>
      </trkpt>
      <trkpt lat="43.38102" lon="5.4631">
        <ele>367</ele>
        <time>2015-08-05T06:35:20Z</time>
      </trkpt>
      <trkpt lat="43.38108" lon="5.46301">
        <ele>367</ele>
        <time>2015-08-05T06:35:34Z</time>
      </trkpt>
      <trkpt lat="43.38117" lon="5.46296">
        <ele>367</ele>
        <time>2015-08-05T06:35:45Z</time>
      </trkpt>
      <trkpt lat="43.38126" lon="5.46302">
        <ele>367</ele>
        <time>2015-08-05T06:35:56Z</time>
      </trkpt>
      <trkpt lat="43.38134" lon="5.46308">
        <ele>367</ele>
        <time>2015-08-05T06:36:04Z</time>
      </trkpt>
      <trkpt lat="43.38141" lon="5.46315">
        <ele>367</ele>
        <time>2015-08-05T06:36:12Z</time>
      </trkpt>
      <trkpt lat="43.3815" lon="5.4632">
        <ele>367</ele>
        <time>2015-08-05T06:36:21Z</time>
      </trkpt>
      <trkpt lat="43.38159" lon="5.46325">
        <ele>367</ele>
        <time>2015-08-05T06:36:29Z</time>
      </trkpt>
      <trkpt lat="43.38168" lon="5.46328">
        <ele>367</ele>
        <time>2015-08-05T06:36:38Z</time>
      </trkpt>
      <trkpt lat="43.38175" lon="5.46336">
        <ele>367</ele>
        <time>2015-08-05T06:36:47Z</time>
      </trkpt>
      <trkpt lat="43.38183" lon="5.46342">
        <ele>367</ele>
        <time>2015-08-05T06:36:57Z</time>
      </trkpt>
      <trkpt lat="43.38192" lon="5.46347">
        <ele>361</ele>
        <time>2015-08-05T06:37:10Z</time>
      </trkpt>
      <trkpt lat="43.382" lon="5.46351">
        <ele>361</ele>
        <time>2015-08-05T06:37:22Z</time>
      </trkpt>
      <trkpt lat="43.38209" lon="5.46353">
        <ele>361</ele>
        <time>2015-08-05T06:37:32Z</time>
      </trkpt>
      <trkpt lat="43.38219" lon="5.46354">
        <ele>361</ele>
        <time>2015-08-05T06:37:41Z</time>
      </trkpt>
      <trkpt lat="43.38229" lon="5.46354">
        <ele>361</ele>
        <time>2015-08-05T06:37:50Z</time>
      </trkpt>
      <trkpt lat="43.38238" lon="5.46352">
        <ele>361</ele>
        <time>2015-08-05T06:37:59Z</time>
      </trkpt>
      <trkpt lat="43.38247" lon="5.46349">
        <ele>361</ele>
        <time>2015-08-05T06:38:09Z</time>
      </trkpt>
      <trkpt lat="43.38245" lon="5.46362">
        <ele>361</ele>
        <time>2015-08-05T06:38:44Z</time>
      </trkpt>
      <trkpt lat="43.38238" lon="5.46369">
        <ele>361</ele>
        <time>2015-08-05T06:38:55Z</time>
      </trkpt>
      <trkpt lat="43.38231" lon="5.46377">
        <ele>361</ele>
        <time>2015-08-05T06:39:05Z</time>
      </trkpt>
      <trkpt lat="43.38222" lon="5.46381">
        <ele>355</ele>
        <time>2015-08-05T06:39:17Z</time>
      </trkpt>
      <trkpt lat="43.38213" lon="5.46381">
        <ele>355</ele>
        <time>2015-08-05T06:39:28Z</time>
      </trkpt>
      <trkpt lat="43.38204" lon="5.46384">
        <ele>355</ele>
        <time>2015-08-05T06:39:38Z</time>
      </trkpt>
      <trkpt lat="43.38196" lon="5.4639">
        <ele>355</ele>
        <time>2015-08-05T06:40:00Z</time>
      </trkpt>
      <trkpt lat="43.3819" lon="5.46399">
        <ele>355</ele>
        <time>2015-08-05T06:40:35Z</time>
      </trkpt>
      <trkpt lat="43.38186" lon="5.4641">
        <ele>355</ele>
        <time>2015-08-05T06:40:56Z</time>
      </trkpt>
      <trkpt lat="43.3818" lon="5.4642">
        <ele>355</ele>
        <time>2015-08-05T06:41:12Z</time>
      </trkpt>
      <trkpt lat="43.38175" lon="5.4643">
        <ele>355</ele>
        <time>2015-08-05T06:41:28Z</time>
      </trkpt>
      <trkpt lat="43.38171" lon="5.46441">
        <ele>355</ele>
        <time>2015-08-05T06:41:43Z</time>
      </trkpt>
      <trkpt lat="43.38173" lon="5.46452">
        <ele>348</ele>
        <time>2015-08-05T06:42:18Z</time>
      </trkpt>
      <trkpt lat="43.38182" lon="5.46457">
        <ele>348</ele>
        <time>2015-08-05T06:42:30Z</time>
      </trkpt>
      <trkpt lat="43.3819" lon="5.46463">
        <ele>348</ele>
        <time>2015-08-05T06:42:44Z</time>
      </trkpt>
      <trkpt lat="43.38198" lon="5.46468">
        <ele>348</ele>
        <time>2015-08-05T06:42:55Z</time>
      </trkpt>
      <trkpt lat="43.38208" lon="5.46469">
        <ele>348</ele>
        <time>2015-08-05T06:43:10Z</time>
      </trkpt>
      <trkpt lat="43.38217" lon="5.46466">
        <ele>348</ele>
        <time>2015-08-05T06:43:21Z</time>
      </trkpt>
      <trkpt lat="43.38225" lon="5.46469">
        <ele>348</ele>
        <time>2015-08-05T06:43:36Z</time>
      </trkpt>
      <trkpt lat="43.38234" lon="5.46471">
        <ele>348</ele>
        <time>2015-08-05T06:43:45Z</time>
      </trkpt>
      <trkpt lat="43.38243" lon="5.46471">
        <ele>348</ele>
        <time>2015-08-05T06:43:55Z</time>
      </trkpt>
      <trkpt lat="43.38253" lon="5.46471">
        <ele>348</ele>
        <time>2015-08-05T06:44:07Z</time>
      </trkpt>
      <trkpt lat="43.38262" lon="5.46473">
        <ele>348</ele>
        <time>2015-08-05T06:44:20Z</time>
      </trkpt>
      <trkpt lat="43.3827" lon="5.46478">
        <ele>348</ele>
        <time>2015-08-05T06:44:30Z</time>
      </trkpt>
      <trkpt lat="43.38279" lon="5.46483">
        <ele>353</ele>
        <time>2015-08-05T06:44:41Z</time>
      </trkpt>
      <trkpt lat="43.38287" lon="5.46487">
        <ele>353</ele>
        <time>2015-08-05T06:44:52Z</time>
      </trkpt>
      <trkpt lat="43.38295" lon="5.46495">
        <ele>353</ele>
        <time>2015-08-05T06:45:16Z</time>
      </trkpt>
      <trkpt lat="43.38304" lon="5.465">
        <ele>353</ele>
        <time>2015-08-05T06:45:35Z</time>
      </trkpt>
      <trkpt lat="43.38312" lon="5.46505">
        <ele>353</ele>
        <time>2015-08-05T06:45:44Z</time>
      </trkpt>
      <trkpt lat="43.38321" lon="5.46511">
        <ele>353</ele>
        <time>2015-08-05T06:45:55Z</time>
      </trkpt>
      <trkpt lat="43.3833" lon="5.46515">
        <ele>364</ele>
        <time>2015-08-05T06:46:11Z</time>
      </trkpt>
      <trkpt lat="43.38338" lon="5.46521">
        <ele>364</ele>
        <time>2015-08-05T06:46:24Z</time>
      </trkpt>
      <trkpt lat="43.38344" lon="5.46531">
        <ele>364</ele>
        <time>2015-08-05T06:46:44Z</time>
      </trkpt>
      <trkpt lat="43.38351" lon="5.46539">
        <ele>364</ele>
        <time>2015-08-05T06:46:59Z</time>
      </trkpt>
      <trkpt lat="43.3836" lon="5.46545">
        <ele>364</ele>
        <time>2015-08-05T06:47:12Z</time>
      </trkpt>
      <trkpt lat="43.38367" lon="5.46554">
        <ele>364</ele>
        <time>2015-08-05T06:47:22Z</time>
      </trkpt>
      <trkpt lat="43.38375" lon="5.46559">
        <ele>364</ele>
        <time>2015-08-05T06:47:32Z</time>
      </trkpt>
      <trkpt lat="43.38384" lon="5.46564">
        <ele>369</ele>
        <time>2015-08-05T06:47:43Z</time>
      </trkpt>
      <trkpt lat="43.38393" lon="5.46566">
        <ele>369</ele>
        <time>2015-08-05T06:47:55Z</time>
      </trkpt>
      <trkpt lat="43.38401" lon="5.4656">
        <ele>376</ele>
        <time>2015-08-05T06:48:10Z</time>
      </trkpt>
      <trkpt lat="43.38408" lon="5.46551">
        <ele>376</ele>
        <time>2015-08-05T06:48:23Z</time>
      </trkpt>
      <trkpt lat="43.38416" lon="5.46545">
        <ele>376</ele>
        <time>2015-08-05T06:48:35Z</time>
      </trkpt>
      <trkpt lat="43.38424" lon="5.46551">
        <ele>376</ele>
        <time>2015-08-05T06:48:48Z</time>
      </trkpt>
      <trkpt lat="43.38429" lon="5.46563">
        <ele>376</ele>
        <time>2015-08-05T06:48:58Z</time>
      </trkpt>
      <trkpt lat="43.38434" lon="5.46574">
        <ele>376</ele>
        <time>2015-08-05T06:49:08Z</time>
      </trkpt>
      <trkpt lat="43.38441" lon="5.46583">
        <ele>376</ele>
        <time>2015-08-05T06:49:18Z</time>
      </trkpt>
      <trkpt lat="43.38447" lon="5.46592">
        <ele>376</ele>
        <time>2015-08-05T06:49:28Z</time>
      </trkpt>
      <trkpt lat="43.38447" lon="5.46605">
        <ele>381</ele>
        <time>2015-08-05T06:49:38Z</time>
      </trkpt>
      <trkpt lat="43.38443" lon="5.46617">
        <ele>381</ele>
        <time>2015-08-05T06:49:48Z</time>
      </trkpt>
      <trkpt lat="43.38438" lon="5.46628">
        <ele>386</ele>
        <time>2015-08-05T06:49:58Z</time>
      </trkpt>
      <trkpt lat="43.38431" lon="5.46637">
        <ele>386</ele>
        <time>2015-08-05T06:50:08Z</time>
      </trkpt>
      <trkpt lat="43.38425" lon="5.46649">
        <ele>386</ele>
        <time>2015-08-05T06:50:17Z</time>
      </trkpt>
      <trkpt lat="43.38422" lon="5.46661">
        <ele>386</ele>
        <time>2015-08-05T06:50:25Z</time>
      </trkpt>
      <trkpt lat="43.38421" lon="5.46674">
        <ele>386</ele>
        <time>2015-08-05T06:50:34Z</time>
      </trkpt>
      <trkpt lat="43.38417" lon="5.46686">
        <ele>393</ele>
        <time>2015-08-05T06:50:45Z</time>
      </trkpt>
      <trkpt lat="43.38415" lon="5.46699">
        <ele>393</ele>
        <time>2015-08-05T06:50:56Z</time>
      </trkpt>
      <trkpt lat="43.38415" lon="5.46712">
        <ele>393</ele>
        <time>2015-08-05T06:51:06Z</time>
      </trkpt>
      <trkpt lat="43.38414" lon="5.46725">
        <ele>393</ele>
        <time>2015-08-05T06:52:34Z</time>
      </trkpt>
      <trkpt lat="43.38412" lon="5.46737">
        <ele>393</ele>
        <time>2015-08-05T06:58:33Z</time>
      </trkpt>
      <trkpt lat="43.38406" lon="5.46746">
        <ele>393</ele>
        <time>2015-08-05T06:58:48Z</time>
      </trkpt>
      <trkpt lat="43.38396" lon="5.46744">
        <ele>393</ele>
        <time>2015-08-05T06:59:04Z</time>
      </trkpt>
      <trkpt lat="43.38388" lon="5.4674">
        <ele>393</ele>
        <time>2015-08-05T06:59:14Z</time>
      </trkpt>
      <trkpt lat="43.38379" lon="5.46736">
        <ele>393</ele>
        <time>2015-08-05T06:59:22Z</time>
      </trkpt>
      <trkpt lat="43.3837" lon="5.46731">
        <ele>393</ele>
        <time>2015-08-05T06:59:32Z</time>
      </trkpt>
      <trkpt lat="43.38361" lon="5.46732">
        <ele>393</ele>
        <time>2015-08-05T06:59:40Z</time>
      </trkpt>
      <trkpt lat="43.38352" lon="5.46732">
        <ele>393</ele>
        <time>2015-08-05T06:59:47Z</time>
      </trkpt>
      <trkpt lat="43.38342" lon="5.46732">
        <ele>393</ele>
        <time>2015-08-05T06:59:56Z</time>
      </trkpt>
      <trkpt lat="43.38333" lon="5.46735">
        <ele>393</ele>
        <time>2015-08-05T07:00:05Z</time>
      </trkpt>
      <trkpt lat="43.38323" lon="5.46734">
        <ele>393</ele>
        <time>2015-08-05T07:00:14Z</time>
      </trkpt>
      <trkpt lat="43.38314" lon="5.46732">
        <ele>393</ele>
        <time>2015-08-05T07:00:23Z</time>
      </trkpt>
      <trkpt lat="43.38306" lon="5.46726">
        <ele>393</ele>
        <time>2015-08-05T07:00:32Z</time>
      </trkpt>
      <trkpt lat="43.38303" lon="5.46714">
        <ele>393</ele>
        <time>2015-08-05T07:01:06Z</time>
      </trkpt>
      <trkpt lat="43.38294" lon="5.46711">
        <ele>393</ele>
        <time>2015-08-05T07:01:17Z</time>
      </trkpt>
      <trkpt lat="43.38285" lon="5.46707">
        <ele>393</ele>
        <time>2015-08-05T07:01:32Z</time>
      </trkpt>
      <trkpt lat="43.38276" lon="5.46705">
        <ele>393</ele>
        <time>2015-08-05T07:01:50Z</time>
      </trkpt>
      <trkpt lat="43.38268" lon="5.467">
        <ele>393</ele>
        <time>2015-08-05T07:02:00Z</time>
      </trkpt>
      <trkpt lat="43.38258" lon="5.46698">
        <ele>393</ele>
        <time>2015-08-05T07:02:10Z</time>
      </trkpt>
      <trkpt lat="43.3825" lon="5.46694">
        <ele>393</ele>
        <time>2015-08-05T07:02:22Z</time>
      </trkpt>
      <trkpt lat="43.38241" lon="5.4669">
        <ele>393</ele>
        <time>2015-08-05T07:02:30Z</time>
      </trkpt>
      <trkpt lat="43.38231" lon="5.46688">
        <ele>387</ele>
        <time>2015-08-05T07:02:38Z</time>
      </trkpt>
      <trkpt lat="43.38222" lon="5.46684">
        <ele>387</ele>
        <time>2015-08-05T07:02:46Z</time>
      </trkpt>
      <trkpt lat="43.38214" lon="5.4668">
        <ele>387</ele>
        <time>2015-08-05T07:02:57Z</time>
      </trkpt>
      <trkpt lat="43.38211" lon="5.46691">
        <ele>387</ele>
        <time>2015-08-05T07:03:13Z</time>
      </trkpt>
      <trkpt lat="43.38201" lon="5.46691">
        <ele>382</ele>
        <time>2015-08-05T07:03:23Z</time>
      </trkpt>
      <trkpt lat="43.38192" lon="5.46689">
        <ele>382</ele>
        <time>2015-08-05T07:03:32Z</time>
      </trkpt>
      <trkpt lat="43.38182" lon="5.46685">
        <ele>382</ele>
        <time>2015-08-05T07:03:41Z</time>
      </trkpt>
      <trkpt lat="43.38173" lon="5.46683">
        <ele>382</ele>
        <time>2015-08-05T07:03:50Z</time>
      </trkpt>
      <trkpt lat="43.38163" lon="5.46681">
        <ele>382</ele>
        <time>2015-08-05T07:03:58Z</time>
      </trkpt>
      <trkpt lat="43.38154" lon="5.46681">
        <ele>382</ele>
        <time>2015-08-05T07:04:06Z</time>
      </trkpt>
      <trkpt lat="43.38144" lon="5.4668">
        <ele>382</ele>
        <time>2015-08-05T07:04:14Z</time>
      </trkpt>
      <trkpt lat="43.38135" lon="5.46679">
        <ele>382</ele>
        <time>2015-08-05T07:04:22Z</time>
      </trkpt>
      <trkpt lat="43.38126" lon="5.46677">
        <ele>377</ele>
        <time>2015-08-05T07:04:30Z</time>
      </trkpt>
      <trkpt lat="43.38116" lon="5.46679">
        <ele>377</ele>
        <time>2015-08-05T07:04:38Z</time>
      </trkpt>
      <trkpt lat="43.38107" lon="5.46679">
        <ele>371</ele>
        <time>2015-08-05T07:04:46Z</time>
      </trkpt>
      <trkpt lat="43.38097" lon="5.4668">
        <ele>371</ele>
        <time>2015-08-05T07:04:55Z</time>
      </trkpt>
      <trkpt lat="43.38087" lon="5.46681">
        <ele>371</ele>
        <time>2015-08-05T07:05:03Z</time>
      </trkpt>
      <trkpt lat="43.38078" lon="5.46683">
        <ele>371</ele>
        <time>2015-08-05T07:05:11Z</time>
      </trkpt>
      <trkpt lat="43.38068" lon="5.46682">
        <ele>365</ele>
        <time>2015-08-05T07:05:19Z</time>
      </trkpt>
      <trkpt lat="43.38059" lon="5.46682">
        <ele>365</ele>
        <time>2015-08-05T07:05:27Z</time>
      </trkpt>
      <trkpt lat="43.38049" lon="5.46681">
        <ele>365</ele>
        <time>2015-08-05T07:05:35Z</time>
      </trkpt>
      <trkpt lat="43.3804" lon="5.46681">
        <ele>365</ele>
        <time>2015-08-05T07:05:43Z</time>
      </trkpt>
      <trkpt lat="43.38031" lon="5.4668">
        <ele>365</ele>
        <time>2015-08-05T07:05:51Z</time>
      </trkpt>
      <trkpt lat="43.38021" lon="5.4668">
        <ele>365</ele>
        <time>2015-08-05T07:05:59Z</time>
      </trkpt>
      <trkpt lat="43.38012" lon="5.46679">
        <ele>359</ele>
        <time>2015-08-05T07:06:08Z</time>
      </trkpt>
      <trkpt lat="43.38002" lon="5.46679">
        <ele>359</ele>
        <time>2015-08-05T07:06:16Z</time>
      </trkpt>
      <trkpt lat="43.37993" lon="5.46679">
        <ele>359</ele>
        <time>2015-08-05T07:06:24Z</time>
      </trkpt>
      <trkpt lat="43.37983" lon="5.46677">
        <ele>359</ele>
        <time>2015-08-05T07:06:33Z</time>
      </trkpt>
      <trkpt lat="43.37974" lon="5.46675">
        <ele>359</ele>
        <time>2015-08-05T07:06:41Z</time>
      </trkpt>
      <trkpt lat="43.37964" lon="5.46679">
        <ele>359</ele>
        <time>2015-08-05T07:06:50Z</time>
      </trkpt>
      <trkpt lat="43.37954" lon="5.4668">
        <ele>359</ele>
        <time>2015-08-05T07:07:00Z</time>
      </trkpt>
      <trkpt lat="43.37947" lon="5.46673">
        <ele>359</ele>
        <time>2015-08-05T07:07:12Z</time>
      </trkpt>
      <trkpt lat="43.37942" lon="5.46663">
        <ele>359</ele>
        <time>2015-08-05T07:07:22Z</time>
      </trkpt>
      <trkpt lat="43.37937" lon="5.46651">
        <ele>359</ele>
        <time>2015-08-05T07:07:31Z</time>
      </trkpt>
      <trkpt lat="43.37932" lon="5.46641">
        <ele>359</ele>
        <time>2015-08-05T07:07:40Z</time>
      </trkpt>
      <trkpt lat="43.37924" lon="5.46632">
        <ele>359</ele>
        <time>2015-08-05T07:07:50Z</time>
      </trkpt>
      <trkpt lat="43.37917" lon="5.46623">
        <ele>359</ele>
        <time>2015-08-05T07:07:59Z</time>
      </trkpt>
      <trkpt lat="43.37908" lon="5.46617">
        <ele>359</ele>
        <time>2015-08-05T07:08:07Z</time>
      </trkpt>
      <trkpt lat="43.37903" lon="5.46606">
        <ele>359</ele>
        <time>2015-08-05T07:08:15Z</time>
      </trkpt>
      <trkpt lat="43.37907" lon="5.46594">
        <ele>359</ele>
        <time>2015-08-05T07:08:54Z</time>
      </trkpt>
      <trkpt lat="43.37914" lon="5.46585">
        <ele>359</ele>
        <time>2015-08-05T07:09:03Z</time>
      </trkpt>
      <trkpt lat="43.37919" lon="5.46575">
        <ele>359</ele>
        <time>2015-08-05T07:09:28Z</time>
      </trkpt>
      <trkpt lat="43.37911" lon="5.46582">
        <ele>359</ele>
        <time>2015-08-05T07:10:40Z</time>
      </trkpt>
      <trkpt lat="43.37904" lon="5.46591">
        <ele>359</ele>
        <time>2015-08-05T07:10:53Z</time>
      </trkpt>
      <trkpt lat="43.37897" lon="5.46598">
        <ele>359</ele>
        <time>2015-08-05T07:11:04Z</time>
      </trkpt>
      <trkpt lat="43.37888" lon="5.46596">
        <ele>359</ele>
        <time>2015-08-05T07:11:17Z</time>
      </trkpt>
      <trkpt lat="43.37879" lon="5.46591">
        <ele>359</ele>
        <time>2015-08-05T07:11:28Z</time>
      </trkpt>
      <trkpt lat="43.37871" lon="5.46587">
        <ele>359</ele>
        <time>2015-08-05T07:11:44Z</time>
      </trkpt>
      <trkpt lat="43.37861" lon="5.4658">
        <ele>359</ele>
        <time>2015-08-05T07:11:52Z</time>
      </trkpt>
      <trkpt lat="43.37852" lon="5.46575">
        <ele>359</ele>
        <time>2015-08-05T07:11:59Z</time>
      </trkpt>
      <trkpt lat="43.37843" lon="5.4657">
        <ele>354</ele>
        <time>2015-08-05T07:12:07Z</time>
      </trkpt>
      <trkpt lat="43.37835" lon="5.46564">
        <ele>354</ele>
        <time>2015-08-05T07:12:15Z</time>
      </trkpt>
      <trkpt lat="43.37826" lon="5.46558">
        <ele>354</ele>
        <time>2015-08-05T07:12:23Z</time>
      </trkpt>
      <trkpt lat="43.37817" lon="5.46552">
        <ele>354</ele>
        <time>2015-08-05T07:12:31Z</time>
      </trkpt>
      <trkpt lat="43.37808" lon="5.46546">
        <ele>354</ele>
        <time>2015-08-05T07:12:40Z</time>
      </trkpt>
      <trkpt lat="43.378" lon="5.4654">
        <ele>354</ele>
        <time>2015-08-05T07:12:48Z</time>
      </trkpt>
      <trkpt lat="43.37792" lon="5.46531">
        <ele>354</ele>
        <time>2015-08-05T07:12:56Z</time>
      </trkpt>
      <trkpt lat="43.37785" lon="5.46524">
        <ele>359</ele>
        <time>2015-08-05T07:13:04Z</time>
      </trkpt>
      <trkpt lat="43.37778" lon="5.46516">
        <ele>359</ele>
        <time>2015-08-05T07:13:12Z</time>
      </trkpt>
      <trkpt lat="43.37771" lon="5.46506">
        <ele>359</ele>
        <time>2015-08-05T07:13:20Z</time>
      </trkpt>
      <trkpt lat="43.37764" lon="5.46496">
        <ele>359</ele>
        <time>2015-08-05T07:13:28Z</time>
      </trkpt>
      <trkpt lat="43.37758" lon="5.46487">
        <ele>359</ele>
        <time>2015-08-05T07:13:35Z</time>
      </trkpt>
      <trkpt lat="43.37749" lon="5.46481">
        <ele>359</ele>
        <time>2015-08-05T07:13:42Z</time>
      </trkpt>
      <trkpt lat="43.37741" lon="5.46474">
        <ele>359</ele>
        <time>2015-08-05T07:13:49Z</time>
      </trkpt>
      <trkpt lat="43.37733" lon="5.46469">
        <ele>359</ele>
        <time>2015-08-05T07:13:57Z</time>
      </trkpt>
      <trkpt lat="43.37724" lon="5.46464">
        <ele>353</ele>
        <time>2015-08-05T07:14:06Z</time>
      </trkpt>
      <trkpt lat="43.37715" lon="5.46459">
        <ele>353</ele>
        <time>2015-08-05T07:14:16Z</time>
      </trkpt>
      <trkpt lat="43.37707" lon="5.46453">
        <ele>353</ele>
        <time>2015-08-05T07:14:29Z</time>
      </trkpt>
      <trkpt lat="43.37708" lon="5.46441">
        <ele>353</ele>
        <time>2015-08-05T07:14:40Z</time>
      </trkpt>
      <trkpt lat="43.37711" lon="5.46429">
        <ele>353</ele>
        <time>2015-08-05T07:14:50Z</time>
      </trkpt>
      <trkpt lat="43.37714" lon="5.46417">
        <ele>353</ele>
        <time>2015-08-05T07:14:58Z</time>
      </trkpt>
      <trkpt lat="43.37719" lon="5.46407">
        <ele>353</ele>
        <time>2015-08-05T07:15:06Z</time>
      </trkpt>
      <trkpt lat="43.37726" lon="5.46399">
        <ele>353</ele>
        <time>2015-08-05T07:15:14Z</time>
      </trkpt>
      <trkpt lat="43.37734" lon="5.46395">
        <ele>353</ele>
        <time>2015-08-05T07:15:23Z</time>
      </trkpt>
      <trkpt lat="43.37743" lon="5.4639">
        <ele>353</ele>
        <time>2015-08-05T07:15:31Z</time>
      </trkpt>
      <trkpt lat="43.37752" lon="5.46387">
        <ele>346</ele>
        <time>2015-08-05T07:15:40Z</time>
      </trkpt>
      <trkpt lat="43.37761" lon="5.46386">
        <ele>346</ele>
        <time>2015-08-05T07:15:48Z</time>
      </trkpt>
      <trkpt lat="43.37771" lon="5.46384">
        <ele>341</ele>
        <time>2015-08-05T07:15:56Z</time>
      </trkpt>
      <trkpt lat="43.3778" lon="5.46382">
        <ele>341</ele>
        <time>2015-08-05T07:16:04Z</time>
      </trkpt>
      <trkpt lat="43.3779" lon="5.4638">
        <ele>341</ele>
        <time>2015-08-05T07:16:13Z</time>
      </trkpt>
      <trkpt lat="43.378" lon="5.46377">
        <ele>341</ele>
        <time>2015-08-05T07:16:21Z</time>
      </trkpt>
      <trkpt lat="43.3781" lon="5.46375">
        <ele>341</ele>
        <time>2015-08-05T07:16:33Z</time>
      </trkpt>
      <trkpt lat="43.37819" lon="5.46377">
        <ele>341</ele>
        <time>2015-08-05T07:16:42Z</time>
      </trkpt>
      <trkpt lat="43.37828" lon="5.46381">
        <ele>341</ele>
        <time>2015-08-05T07:16:51Z</time>
      </trkpt>
      <trkpt lat="43.37836" lon="5.46384">
        <ele>341</ele>
        <time>2015-08-05T07:17:00Z</time>
      </trkpt>
      <trkpt lat="43.37845" lon="5.4639">
        <ele>341</ele>
        <time>2015-08-05T07:17:09Z</time>
      </trkpt>
      <trkpt lat="43.37854" lon="5.46395">
        <ele>341</ele>
        <time>2015-08-05T07:17:18Z</time>
      </trkpt>
      <trkpt lat="43.37863" lon="5.464">
        <ele>341</ele>
        <time>2015-08-05T07:17:27Z</time>
      </trkpt>
      <trkpt lat="43.37873" lon="5.46403">
        <ele>341</ele>
        <time>2015-08-05T07:17:36Z</time>
      </trkpt>
      <trkpt lat="43.37882" lon="5.46406">
        <ele>341</ele>
        <time>2015-08-05T07:17:44Z</time>
      </trkpt>
      <trkpt lat="43.37892" lon="5.46408">
        <ele>341</ele>
        <time>2015-08-05T07:17:53Z</time>
      </trkpt>
      <trkpt lat="43.37901" lon="5.46409">
        <ele>341</ele>
        <time>2015-08-05T07:18:01Z</time>
      </trkpt>
      <trkpt lat="43.37911" lon="5.46412">
        <ele>333</ele>
        <time>2015-08-05T07:18:08Z</time>
      </trkpt>
      <trkpt lat="43.3792" lon="5.46416">
        <ele>333</ele>
        <time>2015-08-05T07:18:16Z</time>
      </trkpt>
      <trkpt lat="43.37927" lon="5.46425">
        <ele>333</ele>
        <time>2015-08-05T07:18:28Z</time>
      </trkpt>
      <trkpt lat="43.37932" lon="5.46434">
        <ele>333</ele>
        <time>2015-08-05T07:18:38Z</time>
      </trkpt>
      <trkpt lat="43.37942" lon="5.46436">
        <ele>339</ele>
        <time>2015-08-05T07:18:52Z</time>
      </trkpt>
      <trkpt lat="43.37945" lon="5.46425">
        <ele>339</ele>
        <time>2015-08-05T07:19:01Z</time>
      </trkpt>
      <trkpt lat="43.3795" lon="5.46414">
        <ele>339</ele>
        <time>2015-08-05T07:19:13Z</time>
      </trkpt>
      <trkpt lat="43.37945" lon="5.46404">
        <ele>332</ele>
        <time>2015-08-05T07:19:25Z</time>
      </trkpt>
      <trkpt lat="43.37939" lon="5.46394">
        <ele>332</ele>
        <time>2015-08-05T07:19:36Z</time>
      </trkpt>
      <trkpt lat="43.37932" lon="5.46385">
        <ele>332</ele>
        <time>2015-08-05T07:19:49Z</time>
      </trkpt>
      <trkpt lat="43.37924" lon="5.46378">
        <ele>326</ele>
        <time>2015-08-05T07:20:00Z</time>
      </trkpt>
      <trkpt lat="43.37915" lon="5.46375">
        <ele>326</ele>
        <time>2015-08-05T07:20:18Z</time>
      </trkpt>
      <trkpt lat="43.37908" lon="5.46368">
        <ele>326</ele>
        <time>2015-08-05T07:20:38Z</time>
      </trkpt>
      <trkpt lat="43.37899" lon="5.46364">
        <ele>326</ele>
        <time>2015-08-05T07:20:46Z</time>
      </trkpt>
      <trkpt lat="43.3789" lon="5.46363">
        <ele>326</ele>
        <time>2015-08-05T07:20:58Z</time>
      </trkpt>
      <trkpt lat="43.3788" lon="5.46363">
        <ele>326</ele>
        <time>2015-08-05T07:21:13Z</time>
      </trkpt>
      <trkpt lat="43.37875" lon="5.46352">
        <ele>331</ele>
        <time>2015-08-05T07:21:31Z</time>
      </trkpt>
      <trkpt lat="43.37867" lon="5.46345">
        <ele>331</ele>
        <time>2015-08-05T07:21:42Z</time>
      </trkpt>
      <trkpt lat="43.37862" lon="5.46335">
        <ele>331</ele>
        <time>2015-08-05T07:21:52Z</time>
      </trkpt>
      <trkpt lat="43.37859" lon="5.46321">
        <ele>325</ele>
        <time>2015-08-05T07:22:05Z</time>
      </trkpt>
      <trkpt lat="43.37859" lon="5.46309">
        <ele>325</ele>
        <time>2015-08-05T07:22:18Z</time>
      </trkpt>
      <trkpt lat="43.37856" lon="5.46297">
        <ele>325</ele>
        <time>2015-08-05T07:22:29Z</time>
      </trkpt>
      <trkpt lat="43.37852" lon="5.46285">
        <ele>325</ele>
        <time>2015-08-05T07:22:39Z</time>
      </trkpt>
      <trkpt lat="43.37847" lon="5.46275">
        <ele>320</ele>
        <time>2015-08-05T07:22:49Z</time>
      </trkpt>
      <trkpt lat="43.3784" lon="5.46266">
        <ele>320</ele>
        <time>2015-08-05T07:22:58Z</time>
      </trkpt>
      <trkpt lat="43.37833" lon="5.46258">
        <ele>313</ele>
        <time>2015-08-05T07:23:08Z</time>
      </trkpt>
      <trkpt lat="43.37824" lon="5.46262">
        <ele>313</ele>
        <time>2015-08-05T07:23:21Z</time>
      </trkpt>
      <trkpt lat="43.37816" lon="5.46266">
        <ele>313</ele>
        <time>2015-08-05T07:23:34Z</time>
      </trkpt>
      <trkpt lat="43.37806" lon="5.46264">
        <ele>313</ele>
        <time>2015-08-05T07:23:49Z</time>
      </trkpt>
      <trkpt lat="43.37797" lon="5.46266">
        <ele>313</ele>
        <time>2015-08-05T07:24:10Z</time>
      </trkpt>
      <trkpt lat="43.37787" lon="5.46266">
        <ele>313</ele>
        <time>2015-08-05T07:24:21Z</time>
      </trkpt>
      <trkpt lat="43.37779" lon="5.4627">
        <ele>313</ele>
        <time>2015-08-05T07:24:31Z</time>
      </trkpt>
      <trkpt lat="43.3777" lon="5.46266">
        <ele>313</ele>
        <time>2015-08-05T07:24:43Z</time>
      </trkpt>
      <trkpt lat="43.37761" lon="5.46266">
        <ele>313</ele>
        <time>2015-08-05T07:24:55Z</time>
      </trkpt>
      <trkpt lat="43.37753" lon="5.46263">
        <ele>313</ele>
        <time>2015-08-05T07:25:05Z</time>
      </trkpt>
      <trkpt lat="43.37744" lon="5.46257">
        <ele>313</ele>
        <time>2015-08-05T07:25:16Z</time>
      </trkpt>
      <trkpt lat="43.37737" lon="5.46249">
        <ele>313</ele>
        <time>2015-08-05T07:25:26Z</time>
      </trkpt>
      <trkpt lat="43.3773" lon="5.46241">
        <ele>305</ele>
        <time>2015-08-05T07:25:43Z</time>
      </trkpt>
      <trkpt lat="43.37723" lon="5.46231">
        <ele>305</ele>
        <time>2015-08-05T07:25:59Z</time>
      </trkpt>
      <trkpt lat="43.37715" lon="5.46227">
        <ele>305</ele>
        <time>2015-08-05T07:26:15Z</time>
      </trkpt>
      <trkpt lat="43.37705" lon="5.46228">
        <ele>305</ele>
        <time>2015-08-05T07:26:27Z</time>
      </trkpt>
      <trkpt lat="43.37696" lon="5.46223">
        <ele>305</ele>
        <time>2015-08-05T07:26:37Z</time>
      </trkpt>
      <trkpt lat="43.37687" lon="5.46222">
        <ele>305</ele>
        <time>2015-08-05T07:26:48Z</time>
      </trkpt>
      <trkpt lat="43.37678" lon="5.46222">
        <ele>305</ele>
        <time>2015-08-05T07:27:01Z</time>
      </trkpt>
      <trkpt lat="43.37669" lon="5.46222">
        <ele>305</ele>
        <time>2015-08-05T07:27:11Z</time>
      </trkpt>
      <trkpt lat="43.37662" lon="5.46213">
        <ele>305</ele>
        <time>2015-08-05T07:27:22Z</time>
      </trkpt>
      <trkpt lat="43.37659" lon="5.46201">
        <ele>311</ele>
        <time>2015-08-05T07:27:37Z</time>
      </trkpt>
      <trkpt lat="43.37656" lon="5.46189">
        <ele>311</ele>
        <time>2015-08-05T07:27:48Z</time>
      </trkpt>
      <trkpt lat="43.37652" lon="5.46178">
        <ele>302</ele>
        <time>2015-08-05T07:27:56Z</time>
      </trkpt>
      <trkpt lat="43.37652" lon="5.46164">
        <ele>302</ele>
        <time>2015-08-05T07:28:09Z</time>
      </trkpt>
      <trkpt lat="43.37654" lon="5.46151">
        <ele>302</ele>
        <time>2015-08-05T07:28:18Z</time>
      </trkpt>
      <trkpt lat="43.37656" lon="5.4614">
        <ele>302</ele>
        <time>2015-08-05T07:28:28Z</time>
      </trkpt>
      <trkpt lat="43.37657" lon="5.46127">
        <ele>302</ele>
        <time>2015-08-05T07:28:38Z</time>
      </trkpt>
      <trkpt lat="43.37658" lon="5.46113">
        <ele>302</ele>
        <time>2015-08-05T07:28:50Z</time>
      </trkpt>
      <trkpt lat="43.3766" lon="5.461">
        <ele>302</ele>
        <time>2015-08-05T07:28:59Z</time>
      </trkpt>
      <trkpt lat="43.37655" lon="5.4609">
        <ele>296</ele>
        <time>2015-08-05T07:29:11Z</time>
      </trkpt>
      <trkpt lat="43.3765" lon="5.46078">
        <ele>296</ele>
        <time>2015-08-05T07:29:21Z</time>
      </trkpt>
      <trkpt lat="43.37645" lon="5.46067">
        <ele>296</ele>
        <time>2015-08-05T07:29:29Z</time>
      </trkpt>
      <trkpt lat="43.37636" lon="5.46066">
        <ele>296</ele>
        <time>2015-08-05T07:29:41Z</time>
      </trkpt>
      <trkpt lat="43.37627" lon="5.4607">
        <ele>296</ele>
        <time>2015-08-05T07:29:51Z</time>
      </trkpt>
      <trkpt lat="43.37617" lon="5.46066">
        <ele>296</ele>
        <time>2015-08-05T07:30:05Z</time>
      </trkpt>
      <trkpt lat="43.37608" lon="5.46063">
        <ele>296</ele>
        <time>2015-08-05T07:30:15Z</time>
      </trkpt>
      <trkpt lat="43.37599" lon="5.46062">
        <ele>296</ele>
        <time>2015-08-05T07:30:26Z</time>
      </trkpt>
      <trkpt lat="43.37592" lon="5.46069">
        <ele>291</ele>
        <time>2015-08-05T07:30:36Z</time>
      </trkpt>
      <trkpt lat="43.37584" lon="5.46076">
        <ele>291</ele>
        <time>2015-08-05T07:30:46Z</time>
      </trkpt>
      <trkpt lat="43.37576" lon="5.46083">
        <ele>291</ele>
        <time>2015-08-05T07:30:56Z</time>
      </trkpt>
      <trkpt lat="43.37566" lon="5.46082">
        <ele>291</ele>
        <time>2015-08-05T07:31:06Z</time>
      </trkpt>
      <trkpt lat="43.37557" lon="5.46076">
        <ele>291</ele>
        <time>2015-08-05T07:31:13Z</time>
      </trkpt>
      <trkpt lat="43.37548" lon="5.46074">
        <ele>291</ele>
        <time>2015-08-05T07:31:26Z</time>
      </trkpt>
      <trkpt lat="43.37541" lon="5.46064">
        <ele>291</ele>
        <time>2015-08-05T07:31:45Z</time>
      </trkpt>
      <trkpt lat="43.37533" lon="5.46058">
        <ele>291</ele>
        <time>2015-08-05T07:31:56Z</time>
      </trkpt>
      <trkpt lat="43.3753" lon="5.46046">
        <ele>297</ele>
        <time>2015-08-05T07:32:06Z</time>
      </trkpt>
      <trkpt lat="43.37528" lon="5.46034">
        <ele>297</ele>
        <time>2015-08-05T07:32:16Z</time>
      </trkpt>
      <trkpt lat="43.37523" lon="5.46023">
        <ele>290</ele>
        <time>2015-08-05T07:32:25Z</time>
      </trkpt>
      <trkpt lat="43.3752" lon="5.46011">
        <ele>290</ele>
        <time>2015-08-05T07:32:34Z</time>
      </trkpt>
      <trkpt lat="43.37517" lon="5.46">
        <ele>290</ele>
        <time>2015-08-05T07:32:42Z</time>
      </trkpt>
      <trkpt lat="43.37512" lon="5.45989">
        <ele>282</ele>
        <time>2015-08-05T07:33:00Z</time>
      </trkpt>
      <trkpt lat="43.37504" lon="5.45983">
        <ele>282</ele>
        <time>2015-08-05T07:33:13Z</time>
      </trkpt>
      <trkpt lat="43.37494" lon="5.45984">
        <ele>282</ele>
        <time>2015-08-05T07:33:24Z</time>
      </trkpt>
      <trkpt lat="43.37485" lon="5.45988">
        <ele>282</ele>
        <time>2015-08-05T07:33:33Z</time>
      </trkpt>
      <trkpt lat="43.37477" lon="5.45995">
        <ele>282</ele>
        <time>2015-08-05T07:33:44Z</time>
      </trkpt>
      <trkpt lat="43.37468" lon="5.46001">
        <ele>282</ele>
        <time>2015-08-05T07:33:52Z</time>
      </trkpt>
      <trkpt lat="43.3746" lon="5.46009">
        <ele>282</ele>
        <time>2015-08-05T07:34:02Z</time>
      </trkpt>
      <trkpt lat="43.37451" lon="5.4601">
        <ele>282</ele>
        <time>2015-08-05T07:34:13Z</time>
      </trkpt>
      <trkpt lat="43.37441" lon="5.46008">
        <ele>282</ele>
        <time>2015-08-05T07:34:25Z</time>
      </trkpt>
      <trkpt lat="43.37432" lon="5.46005">
        <ele>282</ele>
        <time>2015-08-05T07:34:34Z</time>
      </trkpt>
      <trkpt lat="43.37423" lon="5.46006">
        <ele>282</ele>
        <time>2015-08-05T07:34:44Z</time>
      </trkpt>
      <trkpt lat="43.37414" lon="5.46004">
        <ele>288</ele>
        <time>2015-08-05T07:34:55Z</time>
      </trkpt>
      <trkpt lat="43.37405" lon="5.46004">
        <ele>288</ele>
        <time>2015-08-05T07:35:07Z</time>
      </trkpt>
      <trkpt lat="43.37396" lon="5.46">
        <ele>288</ele>
        <time>2015-08-05T07:35:15Z</time>
      </trkpt>
      <trkpt lat="43.37386" lon="5.46">
        <ele>288</ele>
        <time>2015-08-05T07:35:25Z</time>
      </trkpt>
      <trkpt lat="43.37377" lon="5.46006">
        <ele>288</ele>
        <time>2015-08-05T07:35:37Z</time>
      </trkpt>
      <trkpt lat="43.37371" lon="5.46017">
        <ele>288</ele>
        <time>2015-08-05T07:35:46Z</time>
      </trkpt>
      <trkpt lat="43.37364" lon="5.46026">
        <ele>281</ele>
        <time>2015-08-05T07:35:53Z</time>
      </trkpt>
      <trkpt lat="43.37359" lon="5.46036">
        <ele>281</ele>
        <time>2015-08-05T07:36:03Z</time>
      </trkpt>
      <trkpt lat="43.3735" lon="5.46041">
        <ele>281</ele>
        <time>2015-08-05T07:36:18Z</time>
      </trkpt>
      <trkpt lat="43.37341" lon="5.46039">
        <ele>275</ele>
        <time>2015-08-05T07:36:29Z</time>
      </trkpt>
      <trkpt lat="43.37332" lon="5.46037">
        <ele>275</ele>
        <time>2015-08-05T07:36:40Z</time>
      </trkpt>
      <trkpt lat="43.37323" lon="5.46038">
        <ele>275</ele>
        <time>2015-08-05T07:36:52Z</time>
      </trkpt>
      <trkpt lat="43.37314" lon="5.46034">
        <ele>275</ele>
        <time>2015-08-05T07:37:02Z</time>
      </trkpt>
      <trkpt lat="43.37305" lon="5.46027">
        <ele>275</ele>
        <time>2015-08-05T07:37:21Z</time>
      </trkpt>
      <trkpt lat="43.37297" lon="5.46023">
        <ele>275</ele>
        <time>2015-08-05T07:37:33Z</time>
      </trkpt>
      <trkpt lat="43.37287" lon="5.46025">
        <ele>275</ele>
        <time>2015-08-05T07:37:46Z</time>
      </trkpt>
      <trkpt lat="43.37281" lon="5.46037">
        <ele>275</ele>
        <time>2015-08-05T07:37:58Z</time>
      </trkpt>
      <trkpt lat="43.37276" lon="5.46046">
        <ele>275</ele>
        <time>2015-08-05T07:40:58Z</time>
      </trkpt>
      <trkpt lat="43.37266" lon="5.46045">
        <ele>265</ele>
        <time>2015-08-05T07:41:30Z</time>
      </trkpt>
      <trkpt lat="43.3726" lon="5.46035">
        <ele>254</ele>
        <time>2015-08-05T07:42:01Z</time>
      </trkpt>
      <trkpt lat="43.37269" lon="5.46038">
        <ele>271</ele>
        <time>2015-08-05T07:43:09Z</time>
      </trkpt>
      <trkpt lat="43.37273" lon="5.4605">
        <ele>271</ele>
        <time>2015-08-05T07:43:46Z</time>
      </trkpt>
      <trkpt lat="43.37281" lon="5.46054">
        <ele>264</ele>
        <time>2015-08-05T07:46:02Z</time>
      </trkpt>
      <trkpt lat="43.37276" lon="5.46043">
        <ele>278</ele>
        <time>2015-08-05T07:48:57Z</time>
      </trkpt>
      <trkpt lat="43.37269" lon="5.46035">
        <ele>278</ele>
        <time>2015-08-05T07:49:22Z</time>
      </trkpt>
      <trkpt lat="43.37274" lon="5.46045">
        <ele>270</ele>
        <time>2015-08-05T07:49:50Z</time>
      </trkpt>
      <trkpt lat="43.37279" lon="5.46056">
        <ele>270</ele>
        <time>2015-08-05T07:50:40Z</time>
      </trkpt>
      <trkpt lat="43.37274" lon="5.46045">
        <ele>261</ele>
        <time>2015-08-05T07:51:07Z</time>
      </trkpt>
      <trkpt lat="43.37281" lon="5.46053">
        <ele>266</ele>
        <time>2015-08-05T07:52:40Z</time>
      </trkpt>
      <trkpt lat="43.37272" lon="5.46046">
        <ele>266</ele>
        <time>2015-08-05T07:54:41Z</time>
      </trkpt>
      <trkpt lat="43.37263" lon="5.46042">
        <ele>273</ele>
        <time>2015-08-05T07:54:47Z</time>
      </trkpt>
      <trkpt lat="43.37272" lon="5.46046">
        <ele>273</ele>
        <time>2015-08-05T07:55:19Z</time>
      </trkpt>
      <trkpt lat="43.3728" lon="5.46054">
        <ele>259</ele>
        <time>2015-08-05T07:56:50Z</time>
      </trkpt>
      <trkpt lat="43.37284" lon="5.46042">
        <ele>259</ele>
        <time>2015-08-05T07:57:29Z</time>
      </trkpt>
      <trkpt lat="43.37278" lon="5.46051">
        <ele>276</ele>
        <time>2015-08-05T08:01:16Z</time>
      </trkpt>
      <trkpt lat="43.37287" lon="5.4605">
        <ele>260</ele>
        <time>2015-08-05T08:01:54Z</time>
      </trkpt>
      <trkpt lat="43.37278" lon="5.4605">
        <ele>260</ele>
        <time>2015-08-05T08:02:40Z</time>
      </trkpt>
      <trkpt lat="43.37269" lon="5.46046">
        <ele>270</ele>
        <time>2015-08-05T08:03:11Z</time>
      </trkpt>
      <trkpt lat="43.37278" lon="5.46044">
        <ele>263</ele>
        <time>2015-08-05T08:03:57Z</time>
      </trkpt>
      <trkpt lat="43.37268" lon="5.46046">
        <ele>271</ele>
        <time>2015-08-05T08:04:36Z</time>
      </trkpt>
      <trkpt lat="43.37278" lon="5.46052">
        <ele>279</ele>
        <time>2015-08-05T08:04:41Z</time>
      </trkpt>
      <trkpt lat="43.37287" lon="5.46054">
        <ele>288</ele>
        <time>2015-08-05T08:04:58Z</time>
      </trkpt>
      <trkpt lat="43.37296" lon="5.46056">
        <ele>272</ele>
        <time>2015-08-05T08:09:56Z</time>
      </trkpt>
      <trkpt lat="43.37287" lon="5.46053">
        <ele>272</ele>
        <time>2015-08-05T08:10:07Z</time>
      </trkpt>
      <trkpt lat="43.37275" lon="5.4605">
        <ele>272</ele>
        <time>2015-08-05T08:10:13Z</time>
      </trkpt>
      <trkpt lat="43.37284" lon="5.46053">
        <ele>258</ele>
        <time>2015-08-05T08:10:34Z</time>
      </trkpt>
      <trkpt lat="43.37274" lon="5.46053">
        <ele>258</ele>
        <time>2015-08-05T08:10:43Z</time>
      </trkpt>
      <trkpt lat="43.37283" lon="5.46054">
        <ele>258</ele>
        <time>2015-08-05T08:11:06Z</time>
      </trkpt>
      <trkpt lat="43.37276" lon="5.46046">
        <ele>279</ele>
        <time>2015-08-05T08:12:04Z</time>
      </trkpt>
      <trkpt lat="43.37267" lon="5.4605">
        <ele>279</ele>
        <time>2015-08-05T08:12:11Z</time>
      </trkpt>
      <trkpt lat="43.37278" lon="5.46055">
        <ele>256</ele>
        <time>2015-08-05T08:12:27Z</time>
      </trkpt>
      <trkpt lat="43.37287" lon="5.4606">
        <ele>237</ele>
        <time>2015-08-05T08:12:32Z</time>
      </trkpt>
      <trkpt lat="43.37279" lon="5.46052">
        <ele>247</ele>
        <time>2015-08-05T08:12:43Z</time>
      </trkpt>
      <trkpt lat="43.37269" lon="5.46048">
        <ele>262</ele>
        <time>2015-08-05T08:14:01Z</time>
      </trkpt>
      <trkpt lat="43.37258" lon="5.46049">
        <ele>262</ele>
        <time>2015-08-05T08:14:08Z</time>
      </trkpt>
      <trkpt lat="43.37252" lon="5.46059">
        <ele>275</ele>
        <time>2015-08-05T08:14:22Z</time>
      </trkpt>
      <trkpt lat="43.37243" lon="5.46063">
        <ele>275</ele>
        <time>2015-08-05T08:14:27Z</time>
      </trkpt>
      <trkpt lat="43.37243" lon="5.46076">
        <ele>259</ele>
        <time>2015-08-05T08:14:53Z</time>
      </trkpt>
      <trkpt lat="43.37234" lon="5.46082">
        <ele>252</ele>
        <time>2015-08-05T08:15:04Z</time>
      </trkpt>
      <trkpt lat="43.37225" lon="5.46088">
        <ele>247</ele>
        <time>2015-08-05T08:15:10Z</time>
      </trkpt>
      <trkpt lat="43.37217" lon="5.46094">
        <ele>257</ele>
        <time>2015-08-05T08:15:18Z</time>
      </trkpt>
      <trkpt lat="43.37208" lon="5.46094">
        <ele>264</ele>
        <time>2015-08-05T08:15:26Z</time>
      </trkpt>
      <trkpt lat="43.37201" lon="5.46101">
        <ele>259</ele>
        <time>2015-08-05T08:15:42Z</time>
      </trkpt>
      <trkpt lat="43.37191" lon="5.46102">
        <ele>259</ele>
        <time>2015-08-05T08:15:47Z</time>
      </trkpt>
      <trkpt lat="43.37181" lon="5.46101">
        <ele>259</ele>
        <time>2015-08-05T08:15:55Z</time>
      </trkpt>
      <trkpt lat="43.37172" lon="5.46101">
        <ele>259</ele>
        <time>2015-08-05T08:16:16Z</time>
      </trkpt>
      <trkpt lat="43.37164" lon="5.46109">
        <ele>259</ele>
        <time>2015-08-05T08:16:26Z</time>
      </trkpt>
      <trkpt lat="43.37155" lon="5.46115">
        <ele>259</ele>
        <time>2015-08-05T08:16:39Z</time>
      </trkpt>
      <trkpt lat="43.37145" lon="5.46114">
        <ele>249</ele>
        <time>2015-08-05T08:16:54Z</time>
      </trkpt>
      <trkpt lat="43.37135" lon="5.46118">
        <ele>262</ele>
        <time>2015-08-05T08:17:09Z</time>
      </trkpt>
      <trkpt lat="43.37126" lon="5.46116">
        <ele>273</ele>
        <time>2015-08-05T08:17:18Z</time>
      </trkpt>
      <trkpt lat="43.37117" lon="5.46113">
        <ele>284</ele>
        <time>2015-08-05T08:17:24Z</time>
      </trkpt>
      <trkpt lat="43.37106" lon="5.46113">
        <ele>294</ele>
        <time>2015-08-05T08:17:28Z</time>
      </trkpt>
      <trkpt lat="43.37096" lon="5.46113">
        <ele>294</ele>
        <time>2015-08-05T08:17:33Z</time>
      </trkpt>
      <trkpt lat="43.37087" lon="5.46116">
        <ele>294</ele>
        <time>2015-08-05T08:17:41Z</time>
      </trkpt>
      <trkpt lat="43.37082" lon="5.46126">
        <ele>287</ele>
        <time>2015-08-05T08:18:01Z</time>
      </trkpt>
      <trkpt lat="43.37073" lon="5.46127">
        <ele>287</ele>
        <time>2015-08-05T08:18:08Z</time>
      </trkpt>
      <trkpt lat="43.37062" lon="5.46125">
        <ele>287</ele>
        <time>2015-08-05T08:18:17Z</time>
      </trkpt>
      <trkpt lat="43.37053" lon="5.46121">
        <ele>287</ele>
        <time>2015-08-05T08:18:23Z</time>
      </trkpt>
      <trkpt lat="43.37049" lon="5.4611">
        <ele>263</ele>
        <time>2015-08-05T08:18:42Z</time>
      </trkpt>
      <trkpt lat="43.3704" lon="5.46106">
        <ele>258</ele>
        <time>2015-08-05T08:18:52Z</time>
      </trkpt>
      <trkpt lat="43.3703" lon="5.46104">
        <ele>263</ele>
        <time>2015-08-05T08:19:00Z</time>
      </trkpt>
      <trkpt lat="43.37021" lon="5.46104">
        <ele>263</ele>
        <time>2015-08-05T08:19:09Z</time>
      </trkpt>
      <trkpt lat="43.37012" lon="5.46106">
        <ele>277</ele>
        <time>2015-08-05T08:19:22Z</time>
      </trkpt>
      <trkpt lat="43.37002" lon="5.46108">
        <ele>257</ele>
        <time>2015-08-05T08:19:32Z</time>
      </trkpt>
      <trkpt lat="43.36993" lon="5.46112">
        <ele>250</ele>
        <time>2015-08-05T08:19:39Z</time>
      </trkpt>
      <trkpt lat="43.36983" lon="5.46116">
        <ele>243</ele>
        <time>2015-08-05T08:19:59Z</time>
      </trkpt>
      <trkpt lat="43.36973" lon="5.46116">
        <ele>243</ele>
        <time>2015-08-05T08:20:04Z</time>
      </trkpt>
      <trkpt lat="43.36963" lon="5.46119">
        <ele>243</ele>
        <time>2015-08-05T08:20:07Z</time>
      </trkpt>
      <trkpt lat="43.36954" lon="5.46125">
        <ele>243</ele>
        <time>2015-08-05T08:20:12Z</time>
      </trkpt>
      <trkpt lat="43.36947" lon="5.46132">
        <ele>243</ele>
        <time>2015-08-05T08:20:18Z</time>
      </trkpt>
      <trkpt lat="43.36939" lon="5.46139">
        <ele>250</ele>
        <time>2015-08-05T08:20:24Z</time>
      </trkpt>
      <trkpt lat="43.36932" lon="5.46146">
        <ele>259</ele>
        <time>2015-08-05T08:20:30Z</time>
      </trkpt>
      <trkpt lat="43.36929" lon="5.46159">
        <ele>280</ele>
        <time>2015-08-05T08:20:42Z</time>
      </trkpt>
      <trkpt lat="43.36922" lon="5.46166">
        <ele>304</ele>
        <time>2015-08-05T08:20:54Z</time>
      </trkpt>
      <trkpt lat="43.36913" lon="5.46167">
        <ele>304</ele>
        <time>2015-08-05T08:20:59Z</time>
      </trkpt>
      <trkpt lat="43.36903" lon="5.4617">
        <ele>304</ele>
        <time>2015-08-05T08:21:09Z</time>
      </trkpt>
      <trkpt lat="43.36894" lon="5.46172">
        <ele>299</ele>
        <time>2015-08-05T08:21:16Z</time>
      </trkpt>
      <trkpt lat="43.36887" lon="5.46181">
        <ele>299</ele>
        <time>2015-08-05T08:21:35Z</time>
      </trkpt>
      <trkpt lat="43.36878" lon="5.46183">
        <ele>305</ele>
        <time>2015-08-05T08:21:44Z</time>
      </trkpt>
      <trkpt lat="43.36867" lon="5.4618">
        <ele>305</ele>
        <time>2015-08-05T08:22:01Z</time>
      </trkpt>
      <trkpt lat="43.36858" lon="5.46185">
        <ele>305</ele>
        <time>2015-08-05T08:22:05Z</time>
      </trkpt>
      <trkpt lat="43.36849" lon="5.46182">
        <ele>294</ele>
        <time>2015-08-05T08:22:18Z</time>
      </trkpt>
      <trkpt lat="43.36842" lon="5.46171">
        <ele>282</ele>
        <time>2015-08-05T08:22:30Z</time>
      </trkpt>
      <trkpt lat="43.36836" lon="5.4616">
        <ele>276</ele>
        <time>2015-08-05T08:22:46Z</time>
      </trkpt>
      <trkpt lat="43.36825" lon="5.4616">
        <ele>283</ele>
        <time>2015-08-05T08:22:51Z</time>
      </trkpt>
      <trkpt lat="43.36816" lon="5.4616">
        <ele>289</ele>
        <time>2015-08-05T08:22:56Z</time>
      </trkpt>
      <trkpt lat="43.36805" lon="5.4616">
        <ele>295</ele>
        <time>2015-08-05T08:23:01Z</time>
      </trkpt>
      <trkpt lat="43.36796" lon="5.46158">
        <ele>300</ele>
        <time>2015-08-05T08:23:10Z</time>
      </trkpt>
      <trkpt lat="43.36787" lon="5.46158">
        <ele>300</ele>
        <time>2015-08-05T08:23:15Z</time>
      </trkpt>
      <trkpt lat="43.36783" lon="5.46145">
        <ele>294</ele>
        <time>2015-08-05T08:23:30Z</time>
      </trkpt>
      <trkpt lat="43.36778" lon="5.46135">
        <ele>294</ele>
        <time>2015-08-05T08:23:43Z</time>
      </trkpt>
      <trkpt lat="43.36766" lon="5.46134">
        <ele>286</ele>
        <time>2015-08-05T08:23:52Z</time>
      </trkpt>
      <trkpt lat="43.36757" lon="5.46133">
        <ele>286</ele>
        <time>2015-08-05T08:23:57Z</time>
      </trkpt>
      <trkpt lat="43.36748" lon="5.46133">
        <ele>296</ele>
        <time>2015-08-05T08:24:06Z</time>
      </trkpt>
      <trkpt lat="43.36739" lon="5.46132">
        <ele>296</ele>
        <time>2015-08-05T08:24:12Z</time>
      </trkpt>
      <trkpt lat="43.36728" lon="5.46131">
        <ele>305</ele>
        <time>2015-08-05T08:24:19Z</time>
      </trkpt>
      <trkpt lat="43.36719" lon="5.4613">
        <ele>305</ele>
        <time>2015-08-05T08:24:25Z</time>
      </trkpt>
      <trkpt lat="43.36709" lon="5.46128">
        <ele>305</ele>
        <time>2015-08-05T08:24:40Z</time>
      </trkpt>
      <trkpt lat="43.367" lon="5.46128">
        <ele>305</ele>
        <time>2015-08-05T08:24:48Z</time>
      </trkpt>
      <trkpt lat="43.3669" lon="5.46125">
        <ele>305</ele>
        <time>2015-08-05T08:25:01Z</time>
      </trkpt>
      <trkpt lat="43.36681" lon="5.46125">
        <ele>305</ele>
        <time>2015-08-05T08:25:07Z</time>
      </trkpt>
      <trkpt lat="43.36671" lon="5.46125">
        <ele>300</ele>
        <time>2015-08-05T08:25:12Z</time>
      </trkpt>
      <trkpt lat="43.36662" lon="5.46125">
        <ele>294</ele>
        <time>2015-08-05T08:25:21Z</time>
      </trkpt>
      <trkpt lat="43.36652" lon="5.46123">
        <ele>294</ele>
        <time>2015-08-05T08:25:31Z</time>
      </trkpt>
      <trkpt lat="43.36643" lon="5.46125">
        <ele>299</ele>
        <time>2015-08-05T08:25:39Z</time>
      </trkpt>
      <trkpt lat="43.36633" lon="5.46125">
        <ele>299</ele>
        <time>2015-08-05T08:25:44Z</time>
      </trkpt>
      <trkpt lat="43.36624" lon="5.46127">
        <ele>299</ele>
        <time>2015-08-05T08:25:53Z</time>
      </trkpt>
      <trkpt lat="43.36614" lon="5.4613">
        <ele>294</ele>
        <time>2015-08-05T08:26:09Z</time>
      </trkpt>
      <trkpt lat="43.36604" lon="5.46133">
        <ele>283</ele>
        <time>2015-08-05T08:26:19Z</time>
      </trkpt>
      <trkpt lat="43.36595" lon="5.46137">
        <ele>255</ele>
        <time>2015-08-05T08:26:33Z</time>
      </trkpt>
      <trkpt lat="43.36585" lon="5.46139">
        <ele>248</ele>
        <time>2015-08-05T08:26:46Z</time>
      </trkpt>
      <trkpt lat="43.36579" lon="5.46129">
        <ele>248</ele>
        <time>2015-08-05T08:27:03Z</time>
      </trkpt>
      <trkpt lat="43.36568" lon="5.46127">
        <ele>264</ele>
        <time>2015-08-05T08:27:12Z</time>
      </trkpt>
      <trkpt lat="43.36558" lon="5.46125">
        <ele>277</ele>
        <time>2015-08-05T08:27:19Z</time>
      </trkpt>
      <trkpt lat="43.36547" lon="5.46126">
        <ele>284</ele>
        <time>2015-08-05T08:27:26Z</time>
      </trkpt>
      <trkpt lat="43.36538" lon="5.46126">
        <ele>284</ele>
        <time>2015-08-05T08:27:31Z</time>
      </trkpt>
      <trkpt lat="43.36528" lon="5.46127">
        <ele>295</ele>
        <time>2015-08-05T08:27:38Z</time>
      </trkpt>
      <trkpt lat="43.36518" lon="5.46129">
        <ele>295</ele>
        <time>2015-08-05T08:27:42Z</time>
      </trkpt>
      <trkpt lat="43.36509" lon="5.46134">
        <ele>287</ele>
        <time>2015-08-05T08:27:49Z</time>
      </trkpt>
      <trkpt lat="43.365" lon="5.46139">
        <ele>266</ele>
        <time>2015-08-05T08:28:00Z</time>
      </trkpt>
      <trkpt lat="43.3649" lon="5.46146">
        <ele>249</ele>
        <time>2015-08-05T08:28:06Z</time>
      </trkpt>
      <trkpt lat="43.36477" lon="5.46148">
        <ele>249</ele>
        <time>2015-08-05T08:28:11Z</time>
      </trkpt>
      <trkpt lat="43.36475" lon="5.4616">
        <ele>226</ele>
        <time>2015-08-05T08:28:21Z</time>
      </trkpt>
      <trkpt lat="43.36481" lon="5.46172">
        <ele>218</ele>
        <time>2015-08-05T08:28:29Z</time>
      </trkpt>
      <trkpt lat="43.36488" lon="5.46184">
        <ele>218</ele>
        <time>2015-08-05T08:28:36Z</time>
      </trkpt>
      <trkpt lat="43.36487" lon="5.46196">
        <ele>210</ele>
        <time>2015-08-05T08:28:46Z</time>
      </trkpt>
      <trkpt lat="43.36484" lon="5.46208">
        <ele>217</ele>
        <time>2015-08-05T08:28:54Z</time>
      </trkpt>
      <trkpt lat="43.36486" lon="5.46221">
        <ele>209</ele>
        <time>2015-08-05T08:29:01Z</time>
      </trkpt>
      <trkpt lat="43.3649" lon="5.46232">
        <ele>209</ele>
        <time>2015-08-05T08:29:08Z</time>
      </trkpt>
      <trkpt lat="43.36492" lon="5.46244">
        <ele>209</ele>
        <time>2015-08-05T08:29:18Z</time>
      </trkpt>
      <trkpt lat="43.36485" lon="5.46253">
        <ele>214</ele>
        <time>2015-08-05T08:29:31Z</time>
      </trkpt>
      <trkpt lat="43.36475" lon="5.46251">
        <ele>236</ele>
        <time>2015-08-05T08:29:43Z</time>
      </trkpt>
      <trkpt lat="43.36465" lon="5.46252">
        <ele>261</ele>
        <time>2015-08-05T08:29:52Z</time>
      </trkpt>
      <trkpt lat="43.36454" lon="5.46251">
        <ele>269</ele>
        <time>2015-08-05T08:29:56Z</time>
      </trkpt>
      <trkpt lat="43.36443" lon="5.46249">
        <ele>281</ele>
        <time>2015-08-05T08:30:03Z</time>
      </trkpt>
      <trkpt lat="43.36433" lon="5.46249">
        <ele>281</ele>
        <time>2015-08-05T08:30:08Z</time>
      </trkpt>
      <trkpt lat="43.36424" lon="5.46243">
        <ele>288</ele>
        <time>2015-08-05T08:30:15Z</time>
      </trkpt>
      <trkpt lat="43.36415" lon="5.46237">
        <ele>271</ele>
        <time>2015-08-05T08:30:27Z</time>
      </trkpt>
      <trkpt lat="43.36405" lon="5.46234">
        <ele>227</ele>
        <time>2015-08-05T08:30:48Z</time>
      </trkpt>
      <trkpt lat="43.36397" lon="5.46239">
        <ele>227</ele>
        <time>2015-08-05T08:30:58Z</time>
      </trkpt>
      <trkpt lat="43.36387" lon="5.46242">
        <ele>237</ele>
        <time>2015-08-05T08:31:07Z</time>
      </trkpt>
      <trkpt lat="43.36378" lon="5.46245">
        <ele>237</ele>
        <time>2015-08-05T08:31:21Z</time>
      </trkpt>
      <trkpt lat="43.36369" lon="5.46247">
        <ele>245</ele>
        <time>2015-08-05T08:31:27Z</time>
      </trkpt>
      <trkpt lat="43.36359" lon="5.46249">
        <ele>245</ele>
        <time>2015-08-05T08:31:31Z</time>
      </trkpt>
      <trkpt lat="43.36349" lon="5.46252">
        <ele>245</ele>
        <time>2015-08-05T08:31:36Z</time>
      </trkpt>
      <trkpt lat="43.36339" lon="5.46254">
        <ele>257</ele>
        <time>2015-08-05T08:31:41Z</time>
      </trkpt>
      <trkpt lat="43.3633" lon="5.46257">
        <ele>270</ele>
        <time>2015-08-05T08:31:51Z</time>
      </trkpt>
      <trkpt lat="43.36319" lon="5.46261">
        <ele>277</ele>
        <time>2015-08-05T08:32:03Z</time>
      </trkpt>
      <trkpt lat="43.36309" lon="5.46271">
        <ele>268</ele>
        <time>2015-08-05T08:32:13Z</time>
      </trkpt>
      <trkpt lat="43.36301" lon="5.46278">
        <ele>268</ele>
        <time>2015-08-05T08:32:17Z</time>
      </trkpt>
      <trkpt lat="43.36293" lon="5.46284">
        <ele>268</ele>
        <time>2015-08-05T08:32:21Z</time>
      </trkpt>
      <trkpt lat="43.36284" lon="5.46288">
        <ele>268</ele>
        <time>2015-08-05T08:32:25Z</time>
      </trkpt>
      <trkpt lat="43.36275" lon="5.46295">
        <ele>268</ele>
        <time>2015-08-05T08:32:36Z</time>
      </trkpt>
      <trkpt lat="43.36279" lon="5.46306">
        <ele>274</ele>
        <time>2015-08-05T08:32:47Z</time>
      </trkpt>
      <trkpt lat="43.3627" lon="5.46312">
        <ele>274</ele>
        <time>2015-08-05T08:32:54Z</time>
      </trkpt>
      <trkpt lat="43.36266" lon="5.46323">
        <ele>267</ele>
        <time>2015-08-05T08:33:00Z</time>
      </trkpt>
      <trkpt lat="43.36258" lon="5.4633">
        <ele>256</ele>
        <time>2015-08-05T08:33:09Z</time>
      </trkpt>
      <trkpt lat="43.36264" lon="5.4634">
        <ele>217</ele>
        <time>2015-08-05T08:33:19Z</time>
      </trkpt>
      <trkpt lat="43.36272" lon="5.46349">
        <ele>192</ele>
        <time>2015-08-05T08:33:28Z</time>
      </trkpt>
      <trkpt lat="43.3626" lon="5.46349">
        <ele>192</ele>
        <time>2015-08-05T08:33:38Z</time>
      </trkpt>
      <trkpt lat="43.36257" lon="5.46361">
        <ele>209</ele>
        <time>2015-08-05T08:33:54Z</time>
      </trkpt>
      <trkpt lat="43.36247" lon="5.46368">
        <ele>209</ele>
        <time>2015-08-05T08:34:04Z</time>
      </trkpt>
      <trkpt lat="43.36242" lon="5.46378">
        <ele>200</ele>
        <time>2015-08-05T08:34:15Z</time>
      </trkpt>
      <trkpt lat="43.36233" lon="5.46382">
        <ele>200</ele>
        <time>2015-08-05T08:34:23Z</time>
      </trkpt>
      <trkpt lat="43.36243" lon="5.46383">
        <ele>185</ele>
        <time>2015-08-05T08:34:35Z</time>
      </trkpt>
      <trkpt lat="43.36235" lon="5.46379">
        <ele>185</ele>
        <time>2015-08-05T08:34:41Z</time>
      </trkpt>
      <trkpt lat="43.36226" lon="5.46376">
        <ele>185</ele>
        <time>2015-08-05T08:34:49Z</time>
      </trkpt>
      <trkpt lat="43.36217" lon="5.4638">
        <ele>200</ele>
        <time>2015-08-05T08:37:12Z</time>
      </trkpt>
      <trkpt lat="43.36207" lon="5.46377">
        <ele>189</ele>
        <time>2015-08-05T08:37:50Z</time>
      </trkpt>
      <trkpt lat="43.36191" lon="5.46375">
        <ele>189</ele>
        <time>2015-08-05T08:37:52Z</time>
      </trkpt>
    </trkseg>
  </trk>
</gpx>